<?xml version="1.0" encoding="UTF-8" standalone="no" ?>
<gpx xmlns="http://www.topografix.com/GPX/1/1" xmlns:xsi="http://www.w3.org/2001/XMLSchema-instance" xsi:schemaLocation="http://www.topografix.com/GPX/1/1 http://www.topografix.com/GPX/1/1/gpx.xsd" version="1.1" creator="VisuGPX - https://www.visugpx.com">
  <metadata>
    <name>la vallee des parquets_18km</name>
    <desc><![CDATA[Walkmeter Randonnée 9 mars 2014 09:17:19]]></desc>
  </metadata>
  <trk>
    <name><![CDATA[la vallee des parquets]]></name>
    <trkseg>
      <trkpt lat="49.74717" lon="2.09431">
        <ele>67</ele>
        <time>2014-03-09T08:17:19Z</time>
      </trkpt>
      <trkpt lat="49.74716" lon="2.0943">
        <ele>67.4</ele>
        <time>2014-03-09T08:17:25Z</time>
      </trkpt>
      <trkpt lat="49.74703" lon="2.0942">
        <ele>72.4</ele>
        <time>2014-03-09T08:17:37Z</time>
      </trkpt>
      <trkpt lat="49.74689" lon="2.09416">
        <ele>73.7</ele>
        <time>2014-03-09T08:17:46Z</time>
      </trkpt>
      <trkpt lat="49.74676" lon="2.09414">
        <ele>69.2</ele>
        <time>2014-03-09T08:17:58Z</time>
      </trkpt>
      <trkpt lat="49.74662" lon="2.0942">
        <ele>71.8</ele>
        <time>2014-03-09T08:18:12Z</time>
      </trkpt>
      <trkpt lat="49.74648" lon="2.09419">
        <ele>72.3</ele>
        <time>2014-03-09T08:18:22Z</time>
      </trkpt>
      <trkpt lat="49.74633" lon="2.0942">
        <ele>72.5</ele>
        <time>2014-03-09T08:18:30Z</time>
      </trkpt>
      <trkpt lat="49.74619" lon="2.09415">
        <ele>72.9</ele>
        <time>2014-03-09T08:18:42Z</time>
      </trkpt>
      <trkpt lat="49.74607" lon="2.09402">
        <ele>73.5</ele>
        <time>2014-03-09T08:18:59Z</time>
      </trkpt>
      <trkpt lat="49.74605" lon="2.0938">
        <ele>74</ele>
        <time>2014-03-09T08:19:16Z</time>
      </trkpt>
      <trkpt lat="49.74604" lon="2.09369">
        <ele>74.2</ele>
        <time>2014-03-09T08:19:21Z</time>
      </trkpt>
      <trkpt lat="49.7459" lon="2.09359">
        <ele>74.5</ele>
        <time>2014-03-09T08:19:31Z</time>
      </trkpt>
      <trkpt lat="49.74579" lon="2.09345">
        <ele>74.7</ele>
        <time>2014-03-09T08:19:39Z</time>
      </trkpt>
      <trkpt lat="49.74572" lon="2.09327">
        <ele>75</ele>
        <time>2014-03-09T08:19:46Z</time>
      </trkpt>
      <trkpt lat="49.74558" lon="2.09322">
        <ele>79.7</ele>
        <time>2014-03-09T08:20:01Z</time>
      </trkpt>
      <trkpt lat="49.74546" lon="2.09308">
        <ele>82</ele>
        <time>2014-03-09T08:20:11Z</time>
      </trkpt>
      <trkpt lat="49.74536" lon="2.09293">
        <ele>82.2</ele>
        <time>2014-03-09T08:20:20Z</time>
      </trkpt>
      <trkpt lat="49.74527" lon="2.09274">
        <ele>80.2</ele>
        <time>2014-03-09T08:20:32Z</time>
      </trkpt>
      <trkpt lat="49.74518" lon="2.09257">
        <ele>80.8</ele>
        <time>2014-03-09T08:20:41Z</time>
      </trkpt>
      <trkpt lat="49.74505" lon="2.09249">
        <ele>82</ele>
        <time>2014-03-09T08:20:52Z</time>
      </trkpt>
      <trkpt lat="49.74491" lon="2.09252">
        <ele>83.8</ele>
        <time>2014-03-09T08:21:06Z</time>
      </trkpt>
      <trkpt lat="49.74476" lon="2.0925">
        <ele>85.5</ele>
        <time>2014-03-09T08:21:16Z</time>
      </trkpt>
      <trkpt lat="49.74463" lon="2.09242">
        <ele>86.8</ele>
        <time>2014-03-09T08:21:25Z</time>
      </trkpt>
      <trkpt lat="49.74451" lon="2.09232">
        <ele>88.1</ele>
        <time>2014-03-09T08:21:36Z</time>
      </trkpt>
      <trkpt lat="49.74437" lon="2.09232">
        <ele>89</ele>
        <time>2014-03-09T08:21:43Z</time>
      </trkpt>
      <trkpt lat="49.74424" lon="2.09227">
        <ele>89</ele>
        <time>2014-03-09T08:21:55Z</time>
      </trkpt>
      <trkpt lat="49.74412" lon="2.09217">
        <ele>89.5</ele>
        <time>2014-03-09T08:22:10Z</time>
      </trkpt>
      <trkpt lat="49.744" lon="2.09205">
        <ele>91.7</ele>
        <time>2014-03-09T08:22:24Z</time>
      </trkpt>
      <trkpt lat="49.74386" lon="2.09195">
        <ele>93.3</ele>
        <time>2014-03-09T08:22:34Z</time>
      </trkpt>
      <trkpt lat="49.74375" lon="2.09182">
        <ele>94.7</ele>
        <time>2014-03-09T08:22:43Z</time>
      </trkpt>
      <trkpt lat="49.74362" lon="2.09175">
        <ele>96.9</ele>
        <time>2014-03-09T08:22:55Z</time>
      </trkpt>
      <trkpt lat="49.74353" lon="2.09157">
        <ele>99.3</ele>
        <time>2014-03-09T08:23:03Z</time>
      </trkpt>
      <trkpt lat="49.74341" lon="2.09146">
        <ele>106</ele>
        <time>2014-03-09T08:23:15Z</time>
      </trkpt>
      <trkpt lat="49.74328" lon="2.09136">
        <ele>108</ele>
        <time>2014-03-09T08:23:26Z</time>
      </trkpt>
      <trkpt lat="49.74316" lon="2.09125">
        <ele>108</ele>
        <time>2014-03-09T08:23:37Z</time>
      </trkpt>
      <trkpt lat="49.74302" lon="2.09125">
        <ele>108</ele>
        <time>2014-03-09T08:23:48Z</time>
      </trkpt>
      <trkpt lat="49.74289" lon="2.09121">
        <ele>108</ele>
        <time>2014-03-09T08:23:56Z</time>
      </trkpt>
      <trkpt lat="49.74277" lon="2.0911">
        <ele>107.7</ele>
        <time>2014-03-09T08:24:07Z</time>
      </trkpt>
      <trkpt lat="49.74264" lon="2.09102">
        <ele>107.2</ele>
        <time>2014-03-09T08:24:16Z</time>
      </trkpt>
      <trkpt lat="49.74252" lon="2.09091">
        <ele>106.5</ele>
        <time>2014-03-09T08:24:26Z</time>
      </trkpt>
      <trkpt lat="49.74238" lon="2.09087">
        <ele>105.9</ele>
        <time>2014-03-09T08:24:36Z</time>
      </trkpt>
      <trkpt lat="49.74223" lon="2.09089">
        <ele>105.3</ele>
        <time>2014-03-09T08:24:45Z</time>
      </trkpt>
      <trkpt lat="49.74209" lon="2.09091">
        <ele>104.6</ele>
        <time>2014-03-09T08:24:56Z</time>
      </trkpt>
      <trkpt lat="49.74195" lon="2.09097">
        <ele>104.3</ele>
        <time>2014-03-09T08:25:06Z</time>
      </trkpt>
      <trkpt lat="49.74181" lon="2.09096">
        <ele>108.1</ele>
        <time>2014-03-09T08:25:18Z</time>
      </trkpt>
      <trkpt lat="49.74167" lon="2.09091">
        <ele>108.6</ele>
        <time>2014-03-09T08:25:28Z</time>
      </trkpt>
      <trkpt lat="49.74153" lon="2.09088">
        <ele>109.2</ele>
        <time>2014-03-09T08:25:40Z</time>
      </trkpt>
      <trkpt lat="49.7414" lon="2.09089">
        <ele>109.8</ele>
        <time>2014-03-09T08:25:51Z</time>
      </trkpt>
      <trkpt lat="49.74126" lon="2.09089">
        <ele>110.2</ele>
        <time>2014-03-09T08:25:59Z</time>
      </trkpt>
      <trkpt lat="49.74112" lon="2.09086">
        <ele>110.7</ele>
        <time>2014-03-09T08:26:09Z</time>
      </trkpt>
      <trkpt lat="49.74097" lon="2.09085">
        <ele>111.9</ele>
        <time>2014-03-09T08:26:19Z</time>
      </trkpt>
      <trkpt lat="49.74085" lon="2.09075">
        <ele>113.8</ele>
        <time>2014-03-09T08:26:30Z</time>
      </trkpt>
      <trkpt lat="49.74075" lon="2.09061">
        <ele>115.5</ele>
        <time>2014-03-09T08:26:42Z</time>
      </trkpt>
      <trkpt lat="49.74063" lon="2.09048">
        <ele>114.7</ele>
        <time>2014-03-09T08:26:52Z</time>
      </trkpt>
      <trkpt lat="49.7405" lon="2.09041">
        <ele>114.3</ele>
        <time>2014-03-09T08:27:01Z</time>
      </trkpt>
      <trkpt lat="49.74037" lon="2.0903">
        <ele>113.7</ele>
        <time>2014-03-09T08:27:12Z</time>
      </trkpt>
      <trkpt lat="49.74026" lon="2.09018">
        <ele>113.1</ele>
        <time>2014-03-09T08:27:24Z</time>
      </trkpt>
      <trkpt lat="49.74013" lon="2.09009">
        <ele>112.4</ele>
        <time>2014-03-09T08:27:36Z</time>
      </trkpt>
      <trkpt lat="49.74" lon="2.09002">
        <ele>112</ele>
        <time>2014-03-09T08:27:44Z</time>
      </trkpt>
      <trkpt lat="49.73986" lon="2.08997">
        <ele>118.1</ele>
        <time>2014-03-09T08:28:06Z</time>
      </trkpt>
      <trkpt lat="49.73972" lon="2.08987">
        <ele>119</ele>
        <time>2014-03-09T08:28:11Z</time>
      </trkpt>
      <trkpt lat="49.7396" lon="2.08975">
        <ele>119.3</ele>
        <time>2014-03-09T08:28:16Z</time>
      </trkpt>
      <trkpt lat="49.7395" lon="2.08961">
        <ele>119.8</ele>
        <time>2014-03-09T08:28:24Z</time>
      </trkpt>
      <trkpt lat="49.73937" lon="2.08953">
        <ele>120.6</ele>
        <time>2014-03-09T08:28:38Z</time>
      </trkpt>
      <trkpt lat="49.73924" lon="2.08945">
        <ele>119.5</ele>
        <time>2014-03-09T08:28:48Z</time>
      </trkpt>
      <trkpt lat="49.73912" lon="2.08937">
        <ele>118.5</ele>
        <time>2014-03-09T08:28:57Z</time>
      </trkpt>
      <trkpt lat="49.73899" lon="2.08928">
        <ele>117.5</ele>
        <time>2014-03-09T08:29:09Z</time>
      </trkpt>
      <trkpt lat="49.73888" lon="2.08914">
        <ele>116.8</ele>
        <time>2014-03-09T08:29:18Z</time>
      </trkpt>
      <trkpt lat="49.73876" lon="2.08904">
        <ele>116.1</ele>
        <time>2014-03-09T08:29:28Z</time>
      </trkpt>
      <trkpt lat="49.73867" lon="2.08887">
        <ele>115.2</ele>
        <time>2014-03-09T08:29:40Z</time>
      </trkpt>
      <trkpt lat="49.73858" lon="2.0887">
        <ele>113.7</ele>
        <time>2014-03-09T08:29:49Z</time>
      </trkpt>
      <trkpt lat="49.73846" lon="2.08854">
        <ele>111.6</ele>
        <time>2014-03-09T08:30:00Z</time>
      </trkpt>
      <trkpt lat="49.73836" lon="2.0884">
        <ele>112.4</ele>
        <time>2014-03-09T08:30:14Z</time>
      </trkpt>
      <trkpt lat="49.73825" lon="2.08826">
        <ele>111.2</ele>
        <time>2014-03-09T08:30:25Z</time>
      </trkpt>
      <trkpt lat="49.7381" lon="2.08814">
        <ele>110.6</ele>
        <time>2014-03-09T08:30:31Z</time>
      </trkpt>
      <trkpt lat="49.738" lon="2.088">
        <ele>114.1</ele>
        <time>2014-03-09T08:30:40Z</time>
      </trkpt>
      <trkpt lat="49.73801" lon="2.08779">
        <ele>118.5</ele>
        <time>2014-03-09T08:30:51Z</time>
      </trkpt>
      <trkpt lat="49.7381" lon="2.08762">
        <ele>121</ele>
        <time>2014-03-09T08:31:01Z</time>
      </trkpt>
      <trkpt lat="49.7382" lon="2.08746">
        <ele>121</ele>
        <time>2014-03-09T08:31:10Z</time>
      </trkpt>
      <trkpt lat="49.73833" lon="2.08732">
        <ele>121</ele>
        <time>2014-03-09T08:31:18Z</time>
      </trkpt>
      <trkpt lat="49.73842" lon="2.08715">
        <ele>121</ele>
        <time>2014-03-09T08:31:40Z</time>
      </trkpt>
      <trkpt lat="49.73847" lon="2.08695">
        <ele>122.1</ele>
        <time>2014-03-09T08:31:48Z</time>
      </trkpt>
      <trkpt lat="49.73857" lon="2.08677">
        <ele>124.5</ele>
        <time>2014-03-09T08:31:57Z</time>
      </trkpt>
      <trkpt lat="49.73866" lon="2.0866">
        <ele>126.9</ele>
        <time>2014-03-09T08:32:07Z</time>
      </trkpt>
      <trkpt lat="49.73875" lon="2.08645">
        <ele>130</ele>
        <time>2014-03-09T08:32:19Z</time>
      </trkpt>
      <trkpt lat="49.73882" lon="2.08625">
        <ele>130.5</ele>
        <time>2014-03-09T08:32:28Z</time>
      </trkpt>
      <trkpt lat="49.7389" lon="2.08606">
        <ele>129.2</ele>
        <time>2014-03-09T08:32:39Z</time>
      </trkpt>
      <trkpt lat="49.739" lon="2.0859">
        <ele>128.5</ele>
        <time>2014-03-09T08:32:51Z</time>
      </trkpt>
      <trkpt lat="49.73909" lon="2.08579">
        <ele>127.8</ele>
        <time>2014-03-09T08:33:06Z</time>
      </trkpt>
      <trkpt lat="49.73908" lon="2.08558">
        <ele>127.4</ele>
        <time>2014-03-09T08:33:14Z</time>
      </trkpt>
      <trkpt lat="49.73921" lon="2.08546">
        <ele>126.8</ele>
        <time>2014-03-09T08:33:27Z</time>
      </trkpt>
      <trkpt lat="49.73932" lon="2.08528">
        <ele>126.4</ele>
        <time>2014-03-09T08:33:35Z</time>
      </trkpt>
      <trkpt lat="49.73942" lon="2.08512">
        <ele>126.4</ele>
        <time>2014-03-09T08:33:45Z</time>
      </trkpt>
      <trkpt lat="49.73951" lon="2.08495">
        <ele>128</ele>
        <time>2014-03-09T08:33:54Z</time>
      </trkpt>
      <trkpt lat="49.73956" lon="2.08474">
        <ele>132.8</ele>
        <time>2014-03-09T08:34:03Z</time>
      </trkpt>
      <trkpt lat="49.73967" lon="2.08461">
        <ele>133.6</ele>
        <time>2014-03-09T08:34:14Z</time>
      </trkpt>
      <trkpt lat="49.73976" lon="2.08445">
        <ele>133.3</ele>
        <time>2014-03-09T08:34:21Z</time>
      </trkpt>
      <trkpt lat="49.73982" lon="2.08426">
        <ele>132.9</ele>
        <time>2014-03-09T08:34:32Z</time>
      </trkpt>
      <trkpt lat="49.73984" lon="2.08411">
        <ele>132.5</ele>
        <time>2014-03-09T08:34:41Z</time>
      </trkpt>
      <trkpt lat="49.73973" lon="2.08397">
        <ele>132.2</ele>
        <time>2014-03-09T08:34:48Z</time>
      </trkpt>
      <trkpt lat="49.7396" lon="2.08384">
        <ele>132</ele>
        <time>2014-03-09T08:34:58Z</time>
      </trkpt>
      <trkpt lat="49.73948" lon="2.0838">
        <ele>131.6</ele>
        <time>2014-03-09T08:35:05Z</time>
      </trkpt>
      <trkpt lat="49.73949" lon="2.08382">
        <ele>131.6</ele>
        <time>2014-03-09T08:35:06Z</time>
      </trkpt>
      <trkpt lat="49.73952" lon="2.08373">
        <ele>130.9</ele>
        <time>2014-03-09T08:35:17Z</time>
      </trkpt>
      <trkpt lat="49.73942" lon="2.08356">
        <ele>130.2</ele>
        <time>2014-03-09T08:35:27Z</time>
      </trkpt>
      <trkpt lat="49.73934" lon="2.08339">
        <ele>129.7</ele>
        <time>2014-03-09T08:35:36Z</time>
      </trkpt>
      <trkpt lat="49.73926" lon="2.08321">
        <ele>129.2</ele>
        <time>2014-03-09T08:35:44Z</time>
      </trkpt>
      <trkpt lat="49.73916" lon="2.08307">
        <ele>129.2</ele>
        <time>2014-03-09T08:35:53Z</time>
      </trkpt>
      <trkpt lat="49.73906" lon="2.08291">
        <ele>129.6</ele>
        <time>2014-03-09T08:36:03Z</time>
      </trkpt>
      <trkpt lat="49.73893" lon="2.08281">
        <ele>130</ele>
        <time>2014-03-09T08:36:12Z</time>
      </trkpt>
      <trkpt lat="49.73885" lon="2.08264">
        <ele>130.3</ele>
        <time>2014-03-09T08:36:21Z</time>
      </trkpt>
      <trkpt lat="49.7388" lon="2.08245">
        <ele>130.8</ele>
        <time>2014-03-09T08:36:35Z</time>
      </trkpt>
      <trkpt lat="49.73871" lon="2.08227">
        <ele>131.2</ele>
        <time>2014-03-09T08:36:45Z</time>
      </trkpt>
      <trkpt lat="49.73863" lon="2.08211">
        <ele>131.6</ele>
        <time>2014-03-09T08:36:54Z</time>
      </trkpt>
      <trkpt lat="49.73852" lon="2.08197">
        <ele>131.8</ele>
        <time>2014-03-09T08:37:01Z</time>
      </trkpt>
      <trkpt lat="49.73845" lon="2.08178">
        <ele>131.2</ele>
        <time>2014-03-09T08:37:13Z</time>
      </trkpt>
      <trkpt lat="49.73836" lon="2.0816">
        <ele>130.1</ele>
        <time>2014-03-09T08:37:23Z</time>
      </trkpt>
      <trkpt lat="49.7383" lon="2.0814">
        <ele>129.5</ele>
        <time>2014-03-09T08:37:29Z</time>
      </trkpt>
      <trkpt lat="49.73826" lon="2.08121">
        <ele>128.7</ele>
        <time>2014-03-09T08:37:41Z</time>
      </trkpt>
      <trkpt lat="49.73816" lon="2.08104">
        <ele>128.4</ele>
        <time>2014-03-09T08:37:49Z</time>
      </trkpt>
      <trkpt lat="49.7381" lon="2.08084">
        <ele>127.8</ele>
        <time>2014-03-09T08:38:05Z</time>
      </trkpt>
      <trkpt lat="49.73805" lon="2.08064">
        <ele>127.2</ele>
        <time>2014-03-09T08:38:21Z</time>
      </trkpt>
      <trkpt lat="49.73796" lon="2.08047">
        <ele>126.8</ele>
        <time>2014-03-09T08:38:30Z</time>
      </trkpt>
      <trkpt lat="49.73792" lon="2.0803">
        <ele>126.4</ele>
        <time>2014-03-09T08:38:42Z</time>
      </trkpt>
      <trkpt lat="49.7378" lon="2.08019">
        <ele>126.1</ele>
        <time>2014-03-09T08:38:48Z</time>
      </trkpt>
      <trkpt lat="49.73767" lon="2.0801">
        <ele>125.7</ele>
        <time>2014-03-09T08:38:58Z</time>
      </trkpt>
      <trkpt lat="49.73758" lon="2.07994">
        <ele>125.3</ele>
        <time>2014-03-09T08:39:08Z</time>
      </trkpt>
      <trkpt lat="49.7375" lon="2.07975">
        <ele>124.7</ele>
        <time>2014-03-09T08:39:18Z</time>
      </trkpt>
      <trkpt lat="49.7374" lon="2.0796">
        <ele>121.9</ele>
        <time>2014-03-09T08:39:28Z</time>
      </trkpt>
      <trkpt lat="49.73727" lon="2.07951">
        <ele>120</ele>
        <time>2014-03-09T08:39:38Z</time>
      </trkpt>
      <trkpt lat="49.73717" lon="2.07937">
        <ele>122</ele>
        <time>2014-03-09T08:39:49Z</time>
      </trkpt>
      <trkpt lat="49.73705" lon="2.07924">
        <ele>127.4</ele>
        <time>2014-03-09T08:40:00Z</time>
      </trkpt>
      <trkpt lat="49.73692" lon="2.0792">
        <ele>131.5</ele>
        <time>2014-03-09T08:40:09Z</time>
      </trkpt>
      <trkpt lat="49.7368" lon="2.07906">
        <ele>138.1</ele>
        <time>2014-03-09T08:40:20Z</time>
      </trkpt>
      <trkpt lat="49.73668" lon="2.07892">
        <ele>140</ele>
        <time>2014-03-09T08:40:30Z</time>
      </trkpt>
      <trkpt lat="49.73657" lon="2.07879">
        <ele>141.5</ele>
        <time>2014-03-09T08:40:36Z</time>
      </trkpt>
      <trkpt lat="49.73642" lon="2.07868">
        <ele>142.8</ele>
        <time>2014-03-09T08:40:41Z</time>
      </trkpt>
      <trkpt lat="49.7363" lon="2.07856">
        <ele>143.5</ele>
        <time>2014-03-09T08:40:48Z</time>
      </trkpt>
      <trkpt lat="49.7363" lon="2.07853">
        <ele>143.7</ele>
        <time>2014-03-09T08:40:50Z</time>
      </trkpt>
      <trkpt lat="49.73632" lon="2.07847">
        <ele>144.9</ele>
        <time>2014-03-09T08:41:05Z</time>
      </trkpt>
      <trkpt lat="49.73621" lon="2.07832">
        <ele>146</ele>
        <time>2014-03-09T08:41:19Z</time>
      </trkpt>
      <trkpt lat="49.73609" lon="2.0782">
        <ele>144</ele>
        <time>2014-03-09T08:41:29Z</time>
      </trkpt>
      <trkpt lat="49.73598" lon="2.07805">
        <ele>144.1</ele>
        <time>2014-03-09T08:41:35Z</time>
      </trkpt>
      <trkpt lat="49.73589" lon="2.07791">
        <ele>144.3</ele>
        <time>2014-03-09T08:41:42Z</time>
      </trkpt>
      <trkpt lat="49.73577" lon="2.07779">
        <ele>144.5</ele>
        <time>2014-03-09T08:41:54Z</time>
      </trkpt>
      <trkpt lat="49.73567" lon="2.07765">
        <ele>144.8</ele>
        <time>2014-03-09T08:42:08Z</time>
      </trkpt>
      <trkpt lat="49.73561" lon="2.07746">
        <ele>145</ele>
        <time>2014-03-09T08:42:19Z</time>
      </trkpt>
      <trkpt lat="49.73549" lon="2.07734">
        <ele>145.2</ele>
        <time>2014-03-09T08:42:28Z</time>
      </trkpt>
      <trkpt lat="49.73542" lon="2.07716">
        <ele>145.4</ele>
        <time>2014-03-09T08:42:39Z</time>
      </trkpt>
      <trkpt lat="49.73532" lon="2.07699">
        <ele>145.7</ele>
        <time>2014-03-09T08:42:49Z</time>
      </trkpt>
      <trkpt lat="49.73521" lon="2.07684">
        <ele>145.8</ele>
        <time>2014-03-09T08:42:58Z</time>
      </trkpt>
      <trkpt lat="49.73517" lon="2.07663">
        <ele>146.1</ele>
        <time>2014-03-09T08:43:11Z</time>
      </trkpt>
      <trkpt lat="49.73507" lon="2.07647">
        <ele>146.3</ele>
        <time>2014-03-09T08:43:18Z</time>
      </trkpt>
      <trkpt lat="49.73495" lon="2.07633">
        <ele>146.5</ele>
        <time>2014-03-09T08:43:27Z</time>
      </trkpt>
      <trkpt lat="49.7349" lon="2.07612">
        <ele>146.7</ele>
        <time>2014-03-09T08:43:40Z</time>
      </trkpt>
      <trkpt lat="49.73482" lon="2.07595">
        <ele>146.9</ele>
        <time>2014-03-09T08:43:49Z</time>
      </trkpt>
      <trkpt lat="49.73473" lon="2.07578">
        <ele>147.3</ele>
        <time>2014-03-09T08:44:02Z</time>
      </trkpt>
      <trkpt lat="49.73466" lon="2.07559">
        <ele>147.9</ele>
        <time>2014-03-09T08:44:17Z</time>
      </trkpt>
      <trkpt lat="49.73456" lon="2.07542">
        <ele>148.2</ele>
        <time>2014-03-09T08:44:26Z</time>
      </trkpt>
      <trkpt lat="49.73446" lon="2.07528">
        <ele>148.4</ele>
        <time>2014-03-09T08:44:32Z</time>
      </trkpt>
      <trkpt lat="49.73437" lon="2.07512">
        <ele>148.9</ele>
        <time>2014-03-09T08:44:45Z</time>
      </trkpt>
      <trkpt lat="49.73427" lon="2.07497">
        <ele>149.1</ele>
        <time>2014-03-09T08:44:52Z</time>
      </trkpt>
      <trkpt lat="49.73421" lon="2.07479">
        <ele>149.6</ele>
        <time>2014-03-09T08:45:05Z</time>
      </trkpt>
      <trkpt lat="49.73412" lon="2.0746">
        <ele>150</ele>
        <time>2014-03-09T08:45:16Z</time>
      </trkpt>
      <trkpt lat="49.73402" lon="2.07445">
        <ele>148.4</ele>
        <time>2014-03-09T08:45:29Z</time>
      </trkpt>
      <trkpt lat="49.7339" lon="2.07433">
        <ele>147.3</ele>
        <time>2014-03-09T08:45:37Z</time>
      </trkpt>
      <trkpt lat="49.73379" lon="2.07418">
        <ele>144.2</ele>
        <time>2014-03-09T08:45:47Z</time>
      </trkpt>
      <trkpt lat="49.7337" lon="2.07402">
        <ele>140.8</ele>
        <time>2014-03-09T08:45:57Z</time>
      </trkpt>
      <trkpt lat="49.73362" lon="2.07381">
        <ele>139.2</ele>
        <time>2014-03-09T08:46:07Z</time>
      </trkpt>
      <trkpt lat="49.73354" lon="2.07365">
        <ele>144</ele>
        <time>2014-03-09T08:46:16Z</time>
      </trkpt>
      <trkpt lat="49.73343" lon="2.0735">
        <ele>143.1</ele>
        <time>2014-03-09T08:46:27Z</time>
      </trkpt>
      <trkpt lat="49.73332" lon="2.07335">
        <ele>143.8</ele>
        <time>2014-03-09T08:46:39Z</time>
      </trkpt>
      <trkpt lat="49.73318" lon="2.07333">
        <ele>144.3</ele>
        <time>2014-03-09T08:46:45Z</time>
      </trkpt>
      <trkpt lat="49.73309" lon="2.07334">
        <ele>144.7</ele>
        <time>2014-03-09T08:46:52Z</time>
      </trkpt>
      <trkpt lat="49.73307" lon="2.07358">
        <ele>145.6</ele>
        <time>2014-03-09T08:47:05Z</time>
      </trkpt>
      <trkpt lat="49.73305" lon="2.07379">
        <ele>146.1</ele>
        <time>2014-03-09T08:47:14Z</time>
      </trkpt>
      <trkpt lat="49.73294" lon="2.07392">
        <ele>147.8</ele>
        <time>2014-03-09T08:47:35Z</time>
      </trkpt>
      <trkpt lat="49.73283" lon="2.07408">
        <ele>148.5</ele>
        <time>2014-03-09T08:47:43Z</time>
      </trkpt>
      <trkpt lat="49.73273" lon="2.07425">
        <ele>149.2</ele>
        <time>2014-03-09T08:47:51Z</time>
      </trkpt>
      <trkpt lat="49.73264" lon="2.0744">
        <ele>147</ele>
        <time>2014-03-09T08:48:03Z</time>
      </trkpt>
      <trkpt lat="49.73254" lon="2.07456">
        <ele>143</ele>
        <time>2014-03-09T08:48:10Z</time>
      </trkpt>
      <trkpt lat="49.73245" lon="2.07472">
        <ele>142.1</ele>
        <time>2014-03-09T08:48:18Z</time>
      </trkpt>
      <trkpt lat="49.73238" lon="2.0749">
        <ele>140.6</ele>
        <time>2014-03-09T08:48:31Z</time>
      </trkpt>
      <trkpt lat="49.73229" lon="2.07507">
        <ele>140</ele>
        <time>2014-03-09T08:48:42Z</time>
      </trkpt>
      <trkpt lat="49.73219" lon="2.07522">
        <ele>140.4</ele>
        <time>2014-03-09T08:48:53Z</time>
      </trkpt>
      <trkpt lat="49.73207" lon="2.07533">
        <ele>140.9</ele>
        <time>2014-03-09T08:49:05Z</time>
      </trkpt>
      <trkpt lat="49.73201" lon="2.07555">
        <ele>140.1</ele>
        <time>2014-03-09T08:49:17Z</time>
      </trkpt>
      <trkpt lat="49.73188" lon="2.07564">
        <ele>139.5</ele>
        <time>2014-03-09T08:49:26Z</time>
      </trkpt>
      <trkpt lat="49.73175" lon="2.0757">
        <ele>138.8</ele>
        <time>2014-03-09T08:49:37Z</time>
      </trkpt>
      <trkpt lat="49.73168" lon="2.0759">
        <ele>137.9</ele>
        <time>2014-03-09T08:49:51Z</time>
      </trkpt>
      <trkpt lat="49.7316" lon="2.07608">
        <ele>137.2</ele>
        <time>2014-03-09T08:49:59Z</time>
      </trkpt>
      <trkpt lat="49.7313" lon="2.07632">
        <ele>133.3</ele>
        <time>2014-03-09T08:50:16Z</time>
      </trkpt>
      <trkpt lat="49.7313" lon="2.07632">
        <ele>133.3</ele>
        <time>2014-03-09T08:51:28Z</time>
      </trkpt>
      <trkpt lat="49.73121" lon="2.07636">
        <ele>130.5</ele>
        <time>2014-03-09T08:51:32Z</time>
      </trkpt>
      <trkpt lat="49.73108" lon="2.07627">
        <ele>129.8</ele>
        <time>2014-03-09T08:51:40Z</time>
      </trkpt>
      <trkpt lat="49.73103" lon="2.07608">
        <ele>128.8</ele>
        <time>2014-03-09T08:51:53Z</time>
      </trkpt>
      <trkpt lat="49.73095" lon="2.07589">
        <ele>128.4</ele>
        <time>2014-03-09T08:51:58Z</time>
      </trkpt>
      <trkpt lat="49.73084" lon="2.07575">
        <ele>127.8</ele>
        <time>2014-03-09T08:52:06Z</time>
      </trkpt>
      <trkpt lat="49.73071" lon="2.07581">
        <ele>127.1</ele>
        <time>2014-03-09T08:52:15Z</time>
      </trkpt>
      <trkpt lat="49.7307" lon="2.07602">
        <ele>126.4</ele>
        <time>2014-03-09T08:52:25Z</time>
      </trkpt>
      <trkpt lat="49.73063" lon="2.07621">
        <ele>127.6</ele>
        <time>2014-03-09T08:52:33Z</time>
      </trkpt>
      <trkpt lat="49.73058" lon="2.07643">
        <ele>126.6</ele>
        <time>2014-03-09T08:52:46Z</time>
      </trkpt>
      <trkpt lat="49.73057" lon="2.07663">
        <ele>126.5</ele>
        <time>2014-03-09T08:52:58Z</time>
      </trkpt>
      <trkpt lat="49.73049" lon="2.07684">
        <ele>126.8</ele>
        <time>2014-03-09T08:53:08Z</time>
      </trkpt>
      <trkpt lat="49.73046" lon="2.07693">
        <ele>126.7</ele>
        <time>2014-03-09T08:53:12Z</time>
      </trkpt>
      <trkpt lat="49.73049" lon="2.07704">
        <ele>126.5</ele>
        <time>2014-03-09T08:53:18Z</time>
      </trkpt>
      <trkpt lat="49.73043" lon="2.07723">
        <ele>126.1</ele>
        <time>2014-03-09T08:53:33Z</time>
      </trkpt>
      <trkpt lat="49.73046" lon="2.07749">
        <ele>125.8</ele>
        <time>2014-03-09T08:53:46Z</time>
      </trkpt>
      <trkpt lat="49.73044" lon="2.07771">
        <ele>125.5</ele>
        <time>2014-03-09T08:53:58Z</time>
      </trkpt>
      <trkpt lat="49.73043" lon="2.07793">
        <ele>125.2</ele>
        <time>2014-03-09T08:54:07Z</time>
      </trkpt>
      <trkpt lat="49.7304" lon="2.07814">
        <ele>125</ele>
        <time>2014-03-09T08:54:16Z</time>
      </trkpt>
      <trkpt lat="49.73028" lon="2.07828">
        <ele>124.7</ele>
        <time>2014-03-09T08:54:27Z</time>
      </trkpt>
      <trkpt lat="49.73015" lon="2.07833">
        <ele>124.5</ele>
        <time>2014-03-09T08:54:34Z</time>
      </trkpt>
      <trkpt lat="49.73001" lon="2.07831">
        <ele>124.3</ele>
        <time>2014-03-09T08:54:41Z</time>
      </trkpt>
      <trkpt lat="49.72987" lon="2.07837">
        <ele>124.1</ele>
        <time>2014-03-09T08:54:48Z</time>
      </trkpt>
      <trkpt lat="49.72972" lon="2.07839">
        <ele>123.5</ele>
        <time>2014-03-09T08:54:56Z</time>
      </trkpt>
      <trkpt lat="49.72959" lon="2.07833">
        <ele>122.3</ele>
        <time>2014-03-09T08:55:07Z</time>
      </trkpt>
      <trkpt lat="49.72946" lon="2.07825">
        <ele>120.9</ele>
        <time>2014-03-09T08:55:19Z</time>
      </trkpt>
      <trkpt lat="49.72942" lon="2.07831">
        <ele>119.4</ele>
        <time>2014-03-09T08:55:29Z</time>
      </trkpt>
      <trkpt lat="49.72949" lon="2.07839">
        <ele>117</ele>
        <time>2014-03-09T08:55:40Z</time>
      </trkpt>
      <trkpt lat="49.72939" lon="2.07853">
        <ele>116.9</ele>
        <time>2014-03-09T08:55:50Z</time>
      </trkpt>
      <trkpt lat="49.7293" lon="2.07871">
        <ele>113</ele>
        <time>2014-03-09T08:56:02Z</time>
      </trkpt>
      <trkpt lat="49.72926" lon="2.07892">
        <ele>113</ele>
        <time>2014-03-09T08:56:18Z</time>
      </trkpt>
      <trkpt lat="49.72921" lon="2.07912">
        <ele>113</ele>
        <time>2014-03-09T08:56:26Z</time>
      </trkpt>
      <trkpt lat="49.72915" lon="2.07932">
        <ele>107.9</ele>
        <time>2014-03-09T08:56:33Z</time>
      </trkpt>
      <trkpt lat="49.72905" lon="2.07946">
        <ele>101.2</ele>
        <time>2014-03-09T08:56:43Z</time>
      </trkpt>
      <trkpt lat="49.72901" lon="2.07967">
        <ele>99</ele>
        <time>2014-03-09T08:56:54Z</time>
      </trkpt>
      <trkpt lat="49.72891" lon="2.07983">
        <ele>97.9</ele>
        <time>2014-03-09T08:57:02Z</time>
      </trkpt>
      <trkpt lat="49.72879" lon="2.07993">
        <ele>97</ele>
        <time>2014-03-09T08:57:09Z</time>
      </trkpt>
      <trkpt lat="49.72868" lon="2.07987">
        <ele>95.3</ele>
        <time>2014-03-09T08:57:31Z</time>
      </trkpt>
      <trkpt lat="49.72867" lon="2.07982">
        <ele>95.4</ele>
        <time>2014-03-09T08:57:35Z</time>
      </trkpt>
      <trkpt lat="49.72854" lon="2.07978">
        <ele>93.5</ele>
        <time>2014-03-09T08:57:48Z</time>
      </trkpt>
      <trkpt lat="49.72839" lon="2.07982">
        <ele>93.3</ele>
        <time>2014-03-09T08:57:57Z</time>
      </trkpt>
      <trkpt lat="49.72826" lon="2.07973">
        <ele>92.3</ele>
        <time>2014-03-09T08:58:08Z</time>
      </trkpt>
      <trkpt lat="49.72814" lon="2.07963">
        <ele>91.4</ele>
        <time>2014-03-09T08:58:17Z</time>
      </trkpt>
      <trkpt lat="49.728" lon="2.07957">
        <ele>90.7</ele>
        <time>2014-03-09T08:58:25Z</time>
      </trkpt>
      <trkpt lat="49.72786" lon="2.07953">
        <ele>89.8</ele>
        <time>2014-03-09T08:58:35Z</time>
      </trkpt>
      <trkpt lat="49.72771" lon="2.07953">
        <ele>88.9</ele>
        <time>2014-03-09T08:58:44Z</time>
      </trkpt>
      <trkpt lat="49.72757" lon="2.07955">
        <ele>87.9</ele>
        <time>2014-03-09T08:58:55Z</time>
      </trkpt>
      <trkpt lat="49.72744" lon="2.07954">
        <ele>87</ele>
        <time>2014-03-09T08:59:05Z</time>
      </trkpt>
      <trkpt lat="49.72731" lon="2.07944">
        <ele>89.2</ele>
        <time>2014-03-09T08:59:21Z</time>
      </trkpt>
      <trkpt lat="49.72717" lon="2.07935">
        <ele>89.7</ele>
        <time>2014-03-09T08:59:33Z</time>
      </trkpt>
      <trkpt lat="49.72706" lon="2.07924">
        <ele>89.2</ele>
        <time>2014-03-09T08:59:43Z</time>
      </trkpt>
      <trkpt lat="49.72696" lon="2.07909">
        <ele>88.5</ele>
        <time>2014-03-09T08:59:55Z</time>
      </trkpt>
      <trkpt lat="49.72694" lon="2.07887">
        <ele>87.7</ele>
        <time>2014-03-09T09:00:11Z</time>
      </trkpt>
      <trkpt lat="49.72692" lon="2.07866">
        <ele>86.9</ele>
        <time>2014-03-09T09:00:25Z</time>
      </trkpt>
      <trkpt lat="49.72694" lon="2.07846">
        <ele>86.5</ele>
        <time>2014-03-09T09:00:34Z</time>
      </trkpt>
      <trkpt lat="49.72698" lon="2.07824">
        <ele>85.8</ele>
        <time>2014-03-09T09:00:46Z</time>
      </trkpt>
      <trkpt lat="49.72689" lon="2.07807">
        <ele>85.4</ele>
        <time>2014-03-09T09:00:55Z</time>
      </trkpt>
      <trkpt lat="49.72677" lon="2.07794">
        <ele>84.6</ele>
        <time>2014-03-09T09:01:09Z</time>
      </trkpt>
      <trkpt lat="49.72664" lon="2.07787">
        <ele>84.2</ele>
        <time>2014-03-09T09:01:18Z</time>
      </trkpt>
      <trkpt lat="49.72651" lon="2.07777">
        <ele>83.5</ele>
        <time>2014-03-09T09:01:30Z</time>
      </trkpt>
      <trkpt lat="49.72648" lon="2.0777">
        <ele>83.4</ele>
        <time>2014-03-09T09:01:33Z</time>
      </trkpt>
      <trkpt lat="49.72634" lon="2.07765">
        <ele>83.1</ele>
        <time>2014-03-09T09:01:39Z</time>
      </trkpt>
      <trkpt lat="49.72625" lon="2.07749">
        <ele>82.7</ele>
        <time>2014-03-09T09:01:46Z</time>
      </trkpt>
      <trkpt lat="49.72618" lon="2.07742">
        <ele>82.2</ele>
        <time>2014-03-09T09:01:56Z</time>
      </trkpt>
      <trkpt lat="49.7261" lon="2.07724">
        <ele>82.6</ele>
        <time>2014-03-09T09:02:09Z</time>
      </trkpt>
      <trkpt lat="49.72599" lon="2.07709">
        <ele>85.5</ele>
        <time>2014-03-09T09:02:21Z</time>
      </trkpt>
      <trkpt lat="49.72587" lon="2.07697">
        <ele>90.6</ele>
        <time>2014-03-09T09:02:31Z</time>
      </trkpt>
      <trkpt lat="49.72585" lon="2.07683">
        <ele>91.7</ele>
        <time>2014-03-09T09:02:38Z</time>
      </trkpt>
      <trkpt lat="49.72591" lon="2.07669">
        <ele>91.2</ele>
        <time>2014-03-09T09:02:44Z</time>
      </trkpt>
      <trkpt lat="49.72584" lon="2.07667">
        <ele>90.8</ele>
        <time>2014-03-09T09:02:50Z</time>
      </trkpt>
      <trkpt lat="49.72572" lon="2.0768">
        <ele>90.6</ele>
        <time>2014-03-09T09:02:53Z</time>
      </trkpt>
      <trkpt lat="49.72563" lon="2.07698">
        <ele>90.2</ele>
        <time>2014-03-09T09:02:58Z</time>
      </trkpt>
      <trkpt lat="49.7255" lon="2.07737">
        <ele>83.7</ele>
        <time>2014-03-09T09:03:10Z</time>
      </trkpt>
      <trkpt lat="49.7255" lon="2.07737">
        <ele>83.7</ele>
        <time>2014-03-09T09:03:58Z</time>
      </trkpt>
      <trkpt lat="49.72543" lon="2.07757">
        <ele>81</ele>
        <time>2014-03-09T09:04:02Z</time>
      </trkpt>
      <trkpt lat="49.72537" lon="2.07778">
        <ele>79.8</ele>
        <time>2014-03-09T09:04:13Z</time>
      </trkpt>
      <trkpt lat="49.72531" lon="2.07798">
        <ele>79.4</ele>
        <time>2014-03-09T09:04:24Z</time>
      </trkpt>
      <trkpt lat="49.7254" lon="2.07809">
        <ele>79</ele>
        <time>2014-03-09T09:04:35Z</time>
      </trkpt>
      <trkpt lat="49.7253" lon="2.07823">
        <ele>78.8</ele>
        <time>2014-03-09T09:04:41Z</time>
      </trkpt>
      <trkpt lat="49.72519" lon="2.07838">
        <ele>78.6</ele>
        <time>2014-03-09T09:04:48Z</time>
      </trkpt>
      <trkpt lat="49.72505" lon="2.07847">
        <ele>78.4</ele>
        <time>2014-03-09T09:04:53Z</time>
      </trkpt>
      <trkpt lat="49.72487" lon="2.07841">
        <ele>78.3</ele>
        <time>2014-03-09T09:04:56Z</time>
      </trkpt>
      <trkpt lat="49.72476" lon="2.07853">
        <ele>77.8</ele>
        <time>2014-03-09T09:05:09Z</time>
      </trkpt>
      <trkpt lat="49.72467" lon="2.07873">
        <ele>77.5</ele>
        <time>2014-03-09T09:05:18Z</time>
      </trkpt>
      <trkpt lat="49.72457" lon="2.0789">
        <ele>77.1</ele>
        <time>2014-03-09T09:05:30Z</time>
      </trkpt>
      <trkpt lat="49.72455" lon="2.07913">
        <ele>76.8</ele>
        <time>2014-03-09T09:05:39Z</time>
      </trkpt>
      <trkpt lat="49.72448" lon="2.07934">
        <ele>76.5</ele>
        <time>2014-03-09T09:05:46Z</time>
      </trkpt>
      <trkpt lat="49.72446" lon="2.07954">
        <ele>76.2</ele>
        <time>2014-03-09T09:05:56Z</time>
      </trkpt>
      <trkpt lat="49.72443" lon="2.07975">
        <ele>73</ele>
        <time>2014-03-09T09:06:07Z</time>
      </trkpt>
      <trkpt lat="49.72435" lon="2.07992">
        <ele>72</ele>
        <time>2014-03-09T09:06:17Z</time>
      </trkpt>
      <trkpt lat="49.72423" lon="2.08005">
        <ele>68</ele>
        <time>2014-03-09T09:06:30Z</time>
      </trkpt>
      <trkpt lat="49.72409" lon="2.08007">
        <ele>69.8</ele>
        <time>2014-03-09T09:06:40Z</time>
      </trkpt>
      <trkpt lat="49.72396" lon="2.07997">
        <ele>71.7</ele>
        <time>2014-03-09T09:06:51Z</time>
      </trkpt>
      <trkpt lat="49.72382" lon="2.07993">
        <ele>74.6</ele>
        <time>2014-03-09T09:07:02Z</time>
      </trkpt>
      <trkpt lat="49.72367" lon="2.07999">
        <ele>76.8</ele>
        <time>2014-03-09T09:07:07Z</time>
      </trkpt>
      <trkpt lat="49.72352" lon="2.07992">
        <ele>77</ele>
        <time>2014-03-09T09:07:38Z</time>
      </trkpt>
      <trkpt lat="49.7234" lon="2.07981">
        <ele>77</ele>
        <time>2014-03-09T09:07:46Z</time>
      </trkpt>
      <trkpt lat="49.72328" lon="2.0797">
        <ele>75.5</ele>
        <time>2014-03-09T09:07:54Z</time>
      </trkpt>
      <trkpt lat="49.72316" lon="2.0796">
        <ele>69</ele>
        <time>2014-03-09T09:08:04Z</time>
      </trkpt>
      <trkpt lat="49.72302" lon="2.07967">
        <ele>69.3</ele>
        <time>2014-03-09T09:08:11Z</time>
      </trkpt>
      <trkpt lat="49.72288" lon="2.07964">
        <ele>69.8</ele>
        <time>2014-03-09T09:08:17Z</time>
      </trkpt>
      <trkpt lat="49.72272" lon="2.0794">
        <ele>70.2</ele>
        <time>2014-03-09T09:08:22Z</time>
      </trkpt>
      <trkpt lat="49.72288" lon="2.07923">
        <ele>70.7</ele>
        <time>2014-03-09T09:08:28Z</time>
      </trkpt>
      <trkpt lat="49.72278" lon="2.07915">
        <ele>76.4</ele>
        <time>2014-03-09T09:08:43Z</time>
      </trkpt>
      <trkpt lat="49.72263" lon="2.07913">
        <ele>80.8</ele>
        <time>2014-03-09T09:08:54Z</time>
      </trkpt>
      <trkpt lat="49.72251" lon="2.07903">
        <ele>81.2</ele>
        <time>2014-03-09T09:09:05Z</time>
      </trkpt>
      <trkpt lat="49.72237" lon="2.07898">
        <ele>83.1</ele>
        <time>2014-03-09T09:09:17Z</time>
      </trkpt>
      <trkpt lat="49.72222" lon="2.07896">
        <ele>83.4</ele>
        <time>2014-03-09T09:09:26Z</time>
      </trkpt>
      <trkpt lat="49.72207" lon="2.07896">
        <ele>83.6</ele>
        <time>2014-03-09T09:09:34Z</time>
      </trkpt>
      <trkpt lat="49.72194" lon="2.07903">
        <ele>84</ele>
        <time>2014-03-09T09:09:44Z</time>
      </trkpt>
      <trkpt lat="49.72181" lon="2.07911">
        <ele>85.2</ele>
        <time>2014-03-09T09:09:58Z</time>
      </trkpt>
      <trkpt lat="49.7216" lon="2.079">
        <ele>85.8</ele>
        <time>2014-03-09T09:10:04Z</time>
      </trkpt>
      <trkpt lat="49.72146" lon="2.07892">
        <ele>87.5</ele>
        <time>2014-03-09T09:10:22Z</time>
      </trkpt>
      <trkpt lat="49.72132" lon="2.07893">
        <ele>88.3</ele>
        <time>2014-03-09T09:10:31Z</time>
      </trkpt>
      <trkpt lat="49.72119" lon="2.07901">
        <ele>89.4</ele>
        <time>2014-03-09T09:10:43Z</time>
      </trkpt>
      <trkpt lat="49.72104" lon="2.07904">
        <ele>88.8</ele>
        <time>2014-03-09T09:10:54Z</time>
      </trkpt>
      <trkpt lat="49.72093" lon="2.07892">
        <ele>89.6</ele>
        <time>2014-03-09T09:11:05Z</time>
      </trkpt>
      <trkpt lat="49.7208" lon="2.07884">
        <ele>88.7</ele>
        <time>2014-03-09T09:11:16Z</time>
      </trkpt>
      <trkpt lat="49.72068" lon="2.07871">
        <ele>87.8</ele>
        <time>2014-03-09T09:11:24Z</time>
      </trkpt>
      <trkpt lat="49.7206" lon="2.07867">
        <ele>87.5</ele>
        <time>2014-03-09T09:11:31Z</time>
      </trkpt>
      <trkpt lat="49.72069" lon="2.07859">
        <ele>87.1</ele>
        <time>2014-03-09T09:11:39Z</time>
      </trkpt>
      <trkpt lat="49.72069" lon="2.07837">
        <ele>86.5</ele>
        <time>2014-03-09T09:11:54Z</time>
      </trkpt>
      <trkpt lat="49.72074" lon="2.07817">
        <ele>85.8</ele>
        <time>2014-03-09T09:12:10Z</time>
      </trkpt>
      <trkpt lat="49.72074" lon="2.07793">
        <ele>85.5</ele>
        <time>2014-03-09T09:12:16Z</time>
      </trkpt>
      <trkpt lat="49.72085" lon="2.07777">
        <ele>85.9</ele>
        <time>2014-03-09T09:12:33Z</time>
      </trkpt>
      <trkpt lat="49.72092" lon="2.07757">
        <ele>87</ele>
        <time>2014-03-09T09:12:41Z</time>
      </trkpt>
      <trkpt lat="49.72098" lon="2.07736">
        <ele>88.2</ele>
        <time>2014-03-09T09:12:49Z</time>
      </trkpt>
      <trkpt lat="49.72106" lon="2.07713">
        <ele>87.8</ele>
        <time>2014-03-09T09:12:58Z</time>
      </trkpt>
      <trkpt lat="49.72111" lon="2.07693">
        <ele>85.4</ele>
        <time>2014-03-09T09:13:04Z</time>
      </trkpt>
      <trkpt lat="49.72115" lon="2.07673">
        <ele>79.2</ele>
        <time>2014-03-09T09:13:14Z</time>
      </trkpt>
      <trkpt lat="49.72124" lon="2.07656">
        <ele>78</ele>
        <time>2014-03-09T09:13:28Z</time>
      </trkpt>
      <trkpt lat="49.72127" lon="2.07635">
        <ele>73.5</ele>
        <time>2014-03-09T09:13:40Z</time>
      </trkpt>
      <trkpt lat="49.72133" lon="2.07616">
        <ele>69.6</ele>
        <time>2014-03-09T09:13:53Z</time>
      </trkpt>
      <trkpt lat="49.72137" lon="2.07596">
        <ele>72.2</ele>
        <time>2014-03-09T09:14:08Z</time>
      </trkpt>
      <trkpt lat="49.72136" lon="2.07575">
        <ele>74.6</ele>
        <time>2014-03-09T09:14:22Z</time>
      </trkpt>
      <trkpt lat="49.72141" lon="2.07555">
        <ele>78.7</ele>
        <time>2014-03-09T09:14:36Z</time>
      </trkpt>
      <trkpt lat="49.72144" lon="2.07534">
        <ele>80.8</ele>
        <time>2014-03-09T09:14:51Z</time>
      </trkpt>
      <trkpt lat="49.7215" lon="2.07514">
        <ele>80.5</ele>
        <time>2014-03-09T09:15:01Z</time>
      </trkpt>
      <trkpt lat="49.72157" lon="2.07496">
        <ele>80.4</ele>
        <time>2014-03-09T09:15:07Z</time>
      </trkpt>
      <trkpt lat="49.7215" lon="2.07487">
        <ele>80.1</ele>
        <time>2014-03-09T09:15:17Z</time>
      </trkpt>
      <trkpt lat="49.72142" lon="2.07506">
        <ele>80.4</ele>
        <time>2014-03-09T09:15:33Z</time>
      </trkpt>
      <trkpt lat="49.72127" lon="2.075">
        <ele>80.7</ele>
        <time>2014-03-09T09:15:42Z</time>
      </trkpt>
      <trkpt lat="49.72128" lon="2.07502">
        <ele>82.5</ele>
        <time>2014-03-09T09:15:45Z</time>
      </trkpt>
      <trkpt lat="49.72128" lon="2.07502">
        <ele>82.5</ele>
        <time>2014-03-09T09:17:10Z</time>
      </trkpt>
      <trkpt lat="49.72129" lon="2.07498">
        <ele>84.2</ele>
        <time>2014-03-09T09:17:15Z</time>
      </trkpt>
      <trkpt lat="49.72116" lon="2.0749">
        <ele>84.7</ele>
        <time>2014-03-09T09:17:22Z</time>
      </trkpt>
      <trkpt lat="49.72104" lon="2.07476">
        <ele>85.3</ele>
        <time>2014-03-09T09:17:33Z</time>
      </trkpt>
      <trkpt lat="49.7209" lon="2.07471">
        <ele>85.7</ele>
        <time>2014-03-09T09:17:39Z</time>
      </trkpt>
      <trkpt lat="49.72077" lon="2.07463">
        <ele>86.5</ele>
        <time>2014-03-09T09:17:52Z</time>
      </trkpt>
      <trkpt lat="49.72062" lon="2.07458">
        <ele>87.7</ele>
        <time>2014-03-09T09:18:05Z</time>
      </trkpt>
      <trkpt lat="49.72047" lon="2.07459">
        <ele>89.3</ele>
        <time>2014-03-09T09:18:15Z</time>
      </trkpt>
      <trkpt lat="49.72034" lon="2.0745">
        <ele>86.9</ele>
        <time>2014-03-09T09:18:24Z</time>
      </trkpt>
      <trkpt lat="49.72022" lon="2.0744">
        <ele>87.4</ele>
        <time>2014-03-09T09:18:39Z</time>
      </trkpt>
      <trkpt lat="49.72009" lon="2.07428">
        <ele>88.1</ele>
        <time>2014-03-09T09:18:46Z</time>
      </trkpt>
      <trkpt lat="49.72002" lon="2.07409">
        <ele>90.6</ele>
        <time>2014-03-09T09:19:05Z</time>
      </trkpt>
      <trkpt lat="49.72003" lon="2.07388">
        <ele>95.5</ele>
        <time>2014-03-09T09:19:25Z</time>
      </trkpt>
      <trkpt lat="49.72007" lon="2.07368">
        <ele>97.3</ele>
        <time>2014-03-09T09:19:46Z</time>
      </trkpt>
      <trkpt lat="49.71998" lon="2.0735">
        <ele>100</ele>
        <time>2014-03-09T09:20:05Z</time>
      </trkpt>
      <trkpt lat="49.71995" lon="2.07328">
        <ele>100</ele>
        <time>2014-03-09T09:20:19Z</time>
      </trkpt>
      <trkpt lat="49.71986" lon="2.07287">
        <ele>102.7</ele>
        <time>2014-03-09T09:20:40Z</time>
      </trkpt>
      <trkpt lat="49.71986" lon="2.07287">
        <ele>102.7</ele>
        <time>2014-03-09T09:21:56Z</time>
      </trkpt>
      <trkpt lat="49.71982" lon="2.07268">
        <ele>103.8</ele>
        <time>2014-03-09T09:22:08Z</time>
      </trkpt>
      <trkpt lat="49.71987" lon="2.07246">
        <ele>105.2</ele>
        <time>2014-03-09T09:22:23Z</time>
      </trkpt>
      <trkpt lat="49.71993" lon="2.07227">
        <ele>107.1</ele>
        <time>2014-03-09T09:22:38Z</time>
      </trkpt>
      <trkpt lat="49.71989" lon="2.07205">
        <ele>108.1</ele>
        <time>2014-03-09T09:22:46Z</time>
      </trkpt>
      <trkpt lat="49.71997" lon="2.07185">
        <ele>110.1</ele>
        <time>2014-03-09T09:23:06Z</time>
      </trkpt>
      <trkpt lat="49.72005" lon="2.07167">
        <ele>111.3</ele>
        <time>2014-03-09T09:23:18Z</time>
      </trkpt>
      <trkpt lat="49.71999" lon="2.07157">
        <ele>109.4</ele>
        <time>2014-03-09T09:23:34Z</time>
      </trkpt>
      <trkpt lat="49.72008" lon="2.07146">
        <ele>107.8</ele>
        <time>2014-03-09T09:23:40Z</time>
      </trkpt>
      <trkpt lat="49.72015" lon="2.07114">
        <ele>107.4</ele>
        <time>2014-03-09T09:23:41Z</time>
      </trkpt>
      <trkpt lat="49.72024" lon="2.07096">
        <ele>108.9</ele>
        <time>2014-03-09T09:23:53Z</time>
      </trkpt>
      <trkpt lat="49.72032" lon="2.07079">
        <ele>111.2</ele>
        <time>2014-03-09T09:24:03Z</time>
      </trkpt>
      <trkpt lat="49.72035" lon="2.07094">
        <ele>112</ele>
        <time>2014-03-09T09:24:19Z</time>
      </trkpt>
      <trkpt lat="49.72035" lon="2.07116">
        <ele>112.4</ele>
        <time>2014-03-09T09:24:27Z</time>
      </trkpt>
      <trkpt lat="49.72041" lon="2.07137">
        <ele>112.7</ele>
        <time>2014-03-09T09:24:33Z</time>
      </trkpt>
      <trkpt lat="49.72046" lon="2.07152">
        <ele>113.2</ele>
        <time>2014-03-09T09:24:44Z</time>
      </trkpt>
      <trkpt lat="49.72066" lon="2.07132">
        <ele>113.8</ele>
        <time>2014-03-09T09:24:57Z</time>
      </trkpt>
      <trkpt lat="49.72082" lon="2.07116">
        <ele>113.9</ele>
        <time>2014-03-09T09:24:58Z</time>
      </trkpt>
      <trkpt lat="49.72094" lon="2.07102">
        <ele>113.9</ele>
        <time>2014-03-09T09:24:59Z</time>
      </trkpt>
      <trkpt lat="49.72149" lon="2.07031">
        <ele>115</ele>
        <time>2014-03-09T09:25:22Z</time>
      </trkpt>
      <trkpt lat="49.72155" lon="2.07044">
        <ele>115.6</ele>
        <time>2014-03-09T09:25:34Z</time>
      </trkpt>
      <trkpt lat="49.72099" lon="2.06992">
        <ele>115.8</ele>
        <time>2014-03-09T09:25:37Z</time>
      </trkpt>
      <trkpt lat="49.72108" lon="2.06975">
        <ele>116.8</ele>
        <time>2014-03-09T09:25:58Z</time>
      </trkpt>
      <trkpt lat="49.72164" lon="2.06909">
        <ele>116.9</ele>
        <time>2014-03-09T09:26:02Z</time>
      </trkpt>
      <trkpt lat="49.72166" lon="2.06912">
        <ele>117.7</ele>
        <time>2014-03-09T09:26:17Z</time>
      </trkpt>
      <trkpt lat="49.72176" lon="2.06909">
        <ele>117.8</ele>
        <time>2014-03-09T09:26:20Z</time>
      </trkpt>
      <trkpt lat="49.72164" lon="2.06893">
        <ele>118</ele>
        <time>2014-03-09T09:26:24Z</time>
      </trkpt>
      <trkpt lat="49.7217" lon="2.06887">
        <ele>121.3</ele>
        <time>2014-03-09T09:26:46Z</time>
      </trkpt>
      <trkpt lat="49.72179" lon="2.06899">
        <ele>123.6</ele>
        <time>2014-03-09T09:26:56Z</time>
      </trkpt>
      <trkpt lat="49.72191" lon="2.06885">
        <ele>125.8</ele>
        <time>2014-03-09T09:27:03Z</time>
      </trkpt>
      <trkpt lat="49.72203" lon="2.06875">
        <ele>131</ele>
        <time>2014-03-09T09:27:12Z</time>
      </trkpt>
      <trkpt lat="49.72207" lon="2.06868">
        <ele>137.7</ele>
        <time>2014-03-09T09:27:27Z</time>
      </trkpt>
      <trkpt lat="49.72214" lon="2.06875">
        <ele>136.6</ele>
        <time>2014-03-09T09:27:36Z</time>
      </trkpt>
      <trkpt lat="49.72218" lon="2.06855">
        <ele>135</ele>
        <time>2014-03-09T09:27:54Z</time>
      </trkpt>
      <trkpt lat="49.72224" lon="2.06834">
        <ele>135</ele>
        <time>2014-03-09T09:28:07Z</time>
      </trkpt>
      <trkpt lat="49.72227" lon="2.06812">
        <ele>135</ele>
        <time>2014-03-09T09:28:17Z</time>
      </trkpt>
      <trkpt lat="49.72235" lon="2.06794">
        <ele>134</ele>
        <time>2014-03-09T09:28:30Z</time>
      </trkpt>
      <trkpt lat="49.72241" lon="2.06775">
        <ele>131.7</ele>
        <time>2014-03-09T09:28:54Z</time>
      </trkpt>
      <trkpt lat="49.72237" lon="2.06754">
        <ele>131.2</ele>
        <time>2014-03-09T09:29:00Z</time>
      </trkpt>
      <trkpt lat="49.72234" lon="2.06733">
        <ele>130.7</ele>
        <time>2014-03-09T09:29:06Z</time>
      </trkpt>
      <trkpt lat="49.72237" lon="2.06712">
        <ele>129.8</ele>
        <time>2014-03-09T09:29:16Z</time>
      </trkpt>
      <trkpt lat="49.72232" lon="2.06692">
        <ele>128.8</ele>
        <time>2014-03-09T09:29:28Z</time>
      </trkpt>
      <trkpt lat="49.72231" lon="2.0667">
        <ele>128</ele>
        <time>2014-03-09T09:29:37Z</time>
      </trkpt>
      <trkpt lat="49.72233" lon="2.06648">
        <ele>129.3</ele>
        <time>2014-03-09T09:29:45Z</time>
      </trkpt>
      <trkpt lat="49.72233" lon="2.06626">
        <ele>131.1</ele>
        <time>2014-03-09T09:29:56Z</time>
      </trkpt>
      <trkpt lat="49.72238" lon="2.06606">
        <ele>131.9</ele>
        <time>2014-03-09T09:30:10Z</time>
      </trkpt>
      <trkpt lat="49.72241" lon="2.06578">
        <ele>132.7</ele>
        <time>2014-03-09T09:30:23Z</time>
      </trkpt>
      <trkpt lat="49.7224" lon="2.06564">
        <ele>133.3</ele>
        <time>2014-03-09T09:30:34Z</time>
      </trkpt>
      <trkpt lat="49.72236" lon="2.06543">
        <ele>133.9</ele>
        <time>2014-03-09T09:30:48Z</time>
      </trkpt>
      <trkpt lat="49.72238" lon="2.06522">
        <ele>133.5</ele>
        <time>2014-03-09T09:30:58Z</time>
      </trkpt>
      <trkpt lat="49.7223" lon="2.06506">
        <ele>133.2</ele>
        <time>2014-03-09T09:31:05Z</time>
      </trkpt>
      <trkpt lat="49.72235" lon="2.06489">
        <ele>133.1</ele>
        <time>2014-03-09T09:31:10Z</time>
      </trkpt>
      <trkpt lat="49.72229" lon="2.0647">
        <ele>132.8</ele>
        <time>2014-03-09T09:31:17Z</time>
      </trkpt>
      <trkpt lat="49.72223" lon="2.0645">
        <ele>132.1</ele>
        <time>2014-03-09T09:31:34Z</time>
      </trkpt>
      <trkpt lat="49.72216" lon="2.06431">
        <ele>132</ele>
        <time>2014-03-09T09:31:38Z</time>
      </trkpt>
      <trkpt lat="49.72208" lon="2.06413">
        <ele>131.9</ele>
        <time>2014-03-09T09:31:41Z</time>
      </trkpt>
      <trkpt lat="49.72205" lon="2.06402">
        <ele>131.8</ele>
        <time>2014-03-09T09:31:43Z</time>
      </trkpt>
      <trkpt lat="49.72228" lon="2.06397">
        <ele>131.4</ele>
        <time>2014-03-09T09:31:54Z</time>
      </trkpt>
      <trkpt lat="49.72232" lon="2.06398">
        <ele>133.5</ele>
        <time>2014-03-09T09:32:08Z</time>
      </trkpt>
      <trkpt lat="49.72224" lon="2.06377">
        <ele>136.1</ele>
        <time>2014-03-09T09:32:12Z</time>
      </trkpt>
      <trkpt lat="49.72216" lon="2.06356">
        <ele>138</ele>
        <time>2014-03-09T09:32:15Z</time>
      </trkpt>
      <trkpt lat="49.72209" lon="2.06337">
        <ele>138.2</ele>
        <time>2014-03-09T09:32:19Z</time>
      </trkpt>
      <trkpt lat="49.72204" lon="2.06317">
        <ele>138.6</ele>
        <time>2014-03-09T09:32:28Z</time>
      </trkpt>
      <trkpt lat="49.72193" lon="2.06305">
        <ele>139.3</ele>
        <time>2014-03-09T09:32:43Z</time>
      </trkpt>
      <trkpt lat="49.72188" lon="2.06284">
        <ele>139.6</ele>
        <time>2014-03-09T09:32:50Z</time>
      </trkpt>
      <trkpt lat="49.72185" lon="2.06261">
        <ele>140</ele>
        <time>2014-03-09T09:32:59Z</time>
      </trkpt>
      <trkpt lat="49.72183" lon="2.0624">
        <ele>140.3</ele>
        <time>2014-03-09T09:33:07Z</time>
      </trkpt>
      <trkpt lat="49.7218" lon="2.0622">
        <ele>140.6</ele>
        <time>2014-03-09T09:33:14Z</time>
      </trkpt>
      <trkpt lat="49.72175" lon="2.06199">
        <ele>141</ele>
        <time>2014-03-09T09:33:21Z</time>
      </trkpt>
      <trkpt lat="49.72175" lon="2.06178">
        <ele>141.3</ele>
        <time>2014-03-09T09:33:29Z</time>
      </trkpt>
      <trkpt lat="49.72181" lon="2.06159">
        <ele>141.7</ele>
        <time>2014-03-09T09:33:37Z</time>
      </trkpt>
      <trkpt lat="49.72181" lon="2.06138">
        <ele>145.2</ele>
        <time>2014-03-09T09:33:54Z</time>
      </trkpt>
      <trkpt lat="49.72193" lon="2.06127">
        <ele>148.7</ele>
        <time>2014-03-09T09:34:05Z</time>
      </trkpt>
      <trkpt lat="49.72204" lon="2.06114">
        <ele>149.8</ele>
        <time>2014-03-09T09:34:15Z</time>
      </trkpt>
      <trkpt lat="49.72216" lon="2.06103">
        <ele>151.1</ele>
        <time>2014-03-09T09:34:29Z</time>
      </trkpt>
      <trkpt lat="49.72226" lon="2.06088">
        <ele>152</ele>
        <time>2014-03-09T09:34:41Z</time>
      </trkpt>
      <trkpt lat="49.72238" lon="2.06077">
        <ele>153</ele>
        <time>2014-03-09T09:34:57Z</time>
      </trkpt>
      <trkpt lat="49.7225" lon="2.06067">
        <ele>156.1</ele>
        <time>2014-03-09T09:35:16Z</time>
      </trkpt>
      <trkpt lat="49.72259" lon="2.06051">
        <ele>158</ele>
        <time>2014-03-09T09:35:25Z</time>
      </trkpt>
      <trkpt lat="49.72268" lon="2.06034">
        <ele>158.4</ele>
        <time>2014-03-09T09:35:38Z</time>
      </trkpt>
      <trkpt lat="49.72278" lon="2.0602">
        <ele>159.6</ele>
        <time>2014-03-09T09:35:52Z</time>
      </trkpt>
      <trkpt lat="49.72283" lon="2.05999">
        <ele>161</ele>
        <time>2014-03-09T09:36:07Z</time>
      </trkpt>
      <trkpt lat="49.72284" lon="2.05978">
        <ele>161</ele>
        <time>2014-03-09T09:36:15Z</time>
      </trkpt>
      <trkpt lat="49.72295" lon="2.05963">
        <ele>162.4</ele>
        <time>2014-03-09T09:36:32Z</time>
      </trkpt>
      <trkpt lat="49.72295" lon="2.05941">
        <ele>163.5</ele>
        <time>2014-03-09T09:36:41Z</time>
      </trkpt>
      <trkpt lat="49.72302" lon="2.05921">
        <ele>164.9</ele>
        <time>2014-03-09T09:36:52Z</time>
      </trkpt>
      <trkpt lat="49.72305" lon="2.05899">
        <ele>166.4</ele>
        <time>2014-03-09T09:37:04Z</time>
      </trkpt>
      <trkpt lat="49.72304" lon="2.05877">
        <ele>167.5</ele>
        <time>2014-03-09T09:37:13Z</time>
      </trkpt>
      <trkpt lat="49.72308" lon="2.05857">
        <ele>168.2</ele>
        <time>2014-03-09T09:37:25Z</time>
      </trkpt>
      <trkpt lat="49.72314" lon="2.05838">
        <ele>168.6</ele>
        <time>2014-03-09T09:37:38Z</time>
      </trkpt>
      <trkpt lat="49.72321" lon="2.05836">
        <ele>168.8</ele>
        <time>2014-03-09T09:37:44Z</time>
      </trkpt>
      <trkpt lat="49.72323" lon="2.05813">
        <ele>169</ele>
        <time>2014-03-09T09:37:50Z</time>
      </trkpt>
      <trkpt lat="49.72329" lon="2.05792">
        <ele>169.5</ele>
        <time>2014-03-09T09:38:05Z</time>
      </trkpt>
      <trkpt lat="49.72334" lon="2.05771">
        <ele>169.9</ele>
        <time>2014-03-09T09:38:18Z</time>
      </trkpt>
      <trkpt lat="49.72338" lon="2.05751">
        <ele>170.2</ele>
        <time>2014-03-09T09:38:29Z</time>
      </trkpt>
      <trkpt lat="49.72349" lon="2.05736">
        <ele>170.5</ele>
        <time>2014-03-09T09:38:39Z</time>
      </trkpt>
      <trkpt lat="49.72354" lon="2.05715">
        <ele>170.8</ele>
        <time>2014-03-09T09:38:50Z</time>
      </trkpt>
      <trkpt lat="49.72364" lon="2.05699">
        <ele>172.3</ele>
        <time>2014-03-09T09:39:04Z</time>
      </trkpt>
      <trkpt lat="49.72368" lon="2.05678">
        <ele>173.9</ele>
        <time>2014-03-09T09:39:15Z</time>
      </trkpt>
      <trkpt lat="49.72368" lon="2.05657">
        <ele>174.9</ele>
        <time>2014-03-09T09:39:25Z</time>
      </trkpt>
      <trkpt lat="49.72372" lon="2.05637">
        <ele>174.5</ele>
        <time>2014-03-09T09:39:38Z</time>
      </trkpt>
      <trkpt lat="49.72377" lon="2.05615">
        <ele>174.2</ele>
        <time>2014-03-09T09:39:47Z</time>
      </trkpt>
      <trkpt lat="49.72384" lon="2.05597">
        <ele>173.9</ele>
        <time>2014-03-09T09:39:54Z</time>
      </trkpt>
      <trkpt lat="49.72391" lon="2.05586">
        <ele>173.4</ele>
        <time>2014-03-09T09:40:08Z</time>
      </trkpt>
      <trkpt lat="49.7239" lon="2.05579">
        <ele>173.1</ele>
        <time>2014-03-09T09:40:18Z</time>
      </trkpt>
      <trkpt lat="49.724" lon="2.05564">
        <ele>172.7</ele>
        <time>2014-03-09T09:40:28Z</time>
      </trkpt>
      <trkpt lat="49.72407" lon="2.05545">
        <ele>172.3</ele>
        <time>2014-03-09T09:40:39Z</time>
      </trkpt>
      <trkpt lat="49.7241" lon="2.05528">
        <ele>172.1</ele>
        <time>2014-03-09T09:40:55Z</time>
      </trkpt>
      <trkpt lat="49.72421" lon="2.05512">
        <ele>172.2</ele>
        <time>2014-03-09T09:41:06Z</time>
      </trkpt>
      <trkpt lat="49.72428" lon="2.05493">
        <ele>172.3</ele>
        <time>2014-03-09T09:41:15Z</time>
      </trkpt>
      <trkpt lat="49.7243" lon="2.05472">
        <ele>172.4</ele>
        <time>2014-03-09T09:41:23Z</time>
      </trkpt>
      <trkpt lat="49.72435" lon="2.0545">
        <ele>172.5</ele>
        <time>2014-03-09T09:41:39Z</time>
      </trkpt>
      <trkpt lat="49.72437" lon="2.05428">
        <ele>172.6</ele>
        <time>2014-03-09T09:41:49Z</time>
      </trkpt>
      <trkpt lat="49.72436" lon="2.05405">
        <ele>172.7</ele>
        <time>2014-03-09T09:41:55Z</time>
      </trkpt>
      <trkpt lat="49.72435" lon="2.05382">
        <ele>172.8</ele>
        <time>2014-03-09T09:42:01Z</time>
      </trkpt>
      <trkpt lat="49.72448" lon="2.0537">
        <ele>172.9</ele>
        <time>2014-03-09T09:42:16Z</time>
      </trkpt>
      <trkpt lat="49.72453" lon="2.05366">
        <ele>173</ele>
        <time>2014-03-09T09:42:21Z</time>
      </trkpt>
      <trkpt lat="49.7246" lon="2.0536">
        <ele>173.1</ele>
        <time>2014-03-09T09:42:28Z</time>
      </trkpt>
      <trkpt lat="49.72465" lon="2.0534">
        <ele>173.2</ele>
        <time>2014-03-09T09:42:38Z</time>
      </trkpt>
      <trkpt lat="49.72473" lon="2.05323">
        <ele>173.3</ele>
        <time>2014-03-09T09:42:52Z</time>
      </trkpt>
      <trkpt lat="49.72479" lon="2.05303">
        <ele>173.4</ele>
        <time>2014-03-09T09:43:03Z</time>
      </trkpt>
      <trkpt lat="49.72482" lon="2.05279">
        <ele>173.5</ele>
        <time>2014-03-09T09:43:12Z</time>
      </trkpt>
      <trkpt lat="49.72486" lon="2.05258">
        <ele>173.7</ele>
        <time>2014-03-09T09:43:22Z</time>
      </trkpt>
      <trkpt lat="49.72499" lon="2.05251">
        <ele>173.8</ele>
        <time>2014-03-09T09:43:35Z</time>
      </trkpt>
      <trkpt lat="49.72505" lon="2.05236">
        <ele>173.9</ele>
        <time>2014-03-09T09:43:49Z</time>
      </trkpt>
      <trkpt lat="49.72512" lon="2.05237">
        <ele>174.1</ele>
        <time>2014-03-09T09:44:01Z</time>
      </trkpt>
      <trkpt lat="49.72513" lon="2.05216">
        <ele>174.1</ele>
        <time>2014-03-09T09:44:07Z</time>
      </trkpt>
      <trkpt lat="49.72515" lon="2.05194">
        <ele>174.2</ele>
        <time>2014-03-09T09:44:16Z</time>
      </trkpt>
      <trkpt lat="49.72518" lon="2.05172">
        <ele>174.3</ele>
        <time>2014-03-09T09:44:25Z</time>
      </trkpt>
      <trkpt lat="49.72524" lon="2.05154">
        <ele>174.5</ele>
        <time>2014-03-09T09:44:40Z</time>
      </trkpt>
      <trkpt lat="49.72528" lon="2.05133">
        <ele>174.6</ele>
        <time>2014-03-09T09:44:47Z</time>
      </trkpt>
      <trkpt lat="49.72533" lon="2.05113">
        <ele>174.7</ele>
        <time>2014-03-09T09:44:58Z</time>
      </trkpt>
      <trkpt lat="49.72543" lon="2.05096">
        <ele>174.8</ele>
        <time>2014-03-09T09:45:13Z</time>
      </trkpt>
      <trkpt lat="49.7255" lon="2.05074">
        <ele>174.9</ele>
        <time>2014-03-09T09:45:22Z</time>
      </trkpt>
      <trkpt lat="49.72551" lon="2.05052">
        <ele>175</ele>
        <time>2014-03-09T09:45:27Z</time>
      </trkpt>
      <trkpt lat="49.72552" lon="2.05031">
        <ele>174.6</ele>
        <time>2014-03-09T09:45:33Z</time>
      </trkpt>
      <trkpt lat="49.72557" lon="2.0501">
        <ele>174.1</ele>
        <time>2014-03-09T09:45:42Z</time>
      </trkpt>
      <trkpt lat="49.72567" lon="2.04995">
        <ele>173.3</ele>
        <time>2014-03-09T09:45:56Z</time>
      </trkpt>
      <trkpt lat="49.72575" lon="2.04976">
        <ele>172.4</ele>
        <time>2014-03-09T09:46:10Z</time>
      </trkpt>
      <trkpt lat="49.72575" lon="2.04954">
        <ele>171.9</ele>
        <time>2014-03-09T09:46:18Z</time>
      </trkpt>
      <trkpt lat="49.72579" lon="2.04932">
        <ele>171.1</ele>
        <time>2014-03-09T09:46:30Z</time>
      </trkpt>
      <trkpt lat="49.72579" lon="2.04908">
        <ele>170.2</ele>
        <time>2014-03-09T09:46:43Z</time>
      </trkpt>
      <trkpt lat="49.72585" lon="2.04889">
        <ele>169.6</ele>
        <time>2014-03-09T09:46:51Z</time>
      </trkpt>
      <trkpt lat="49.72587" lon="2.04868">
        <ele>169.2</ele>
        <time>2014-03-09T09:47:03Z</time>
      </trkpt>
      <trkpt lat="49.72585" lon="2.04845">
        <ele>169.8</ele>
        <time>2014-03-09T09:47:12Z</time>
      </trkpt>
      <trkpt lat="49.72584" lon="2.04823">
        <ele>170.4</ele>
        <time>2014-03-09T09:47:22Z</time>
      </trkpt>
      <trkpt lat="49.72583" lon="2.048">
        <ele>171.2</ele>
        <time>2014-03-09T09:47:33Z</time>
      </trkpt>
      <trkpt lat="49.72591" lon="2.04781">
        <ele>171.8</ele>
        <time>2014-03-09T09:47:43Z</time>
      </trkpt>
      <trkpt lat="49.72599" lon="2.04762">
        <ele>172.5</ele>
        <time>2014-03-09T09:47:54Z</time>
      </trkpt>
      <trkpt lat="49.72613" lon="2.04768">
        <ele>172.9</ele>
        <time>2014-03-09T09:48:02Z</time>
      </trkpt>
      <trkpt lat="49.72621" lon="2.04762">
        <ele>172.4</ele>
        <time>2014-03-09T09:48:11Z</time>
      </trkpt>
      <trkpt lat="49.72625" lon="2.0474">
        <ele>171.7</ele>
        <time>2014-03-09T09:48:21Z</time>
      </trkpt>
      <trkpt lat="49.72628" lon="2.04719">
        <ele>171.2</ele>
        <time>2014-03-09T09:48:29Z</time>
      </trkpt>
      <trkpt lat="49.72639" lon="2.04705">
        <ele>170.5</ele>
        <time>2014-03-09T09:48:39Z</time>
      </trkpt>
      <trkpt lat="49.72651" lon="2.04692">
        <ele>169.6</ele>
        <time>2014-03-09T09:48:50Z</time>
      </trkpt>
      <trkpt lat="49.72664" lon="2.04685">
        <ele>168.1</ele>
        <time>2014-03-09T09:49:01Z</time>
      </trkpt>
      <trkpt lat="49.72679" lon="2.04677">
        <ele>166.3</ele>
        <time>2014-03-09T09:49:13Z</time>
      </trkpt>
      <trkpt lat="49.72692" lon="2.04668">
        <ele>166.8</ele>
        <time>2014-03-09T09:49:24Z</time>
      </trkpt>
      <trkpt lat="49.72704" lon="2.0466">
        <ele>169.3</ele>
        <time>2014-03-09T09:49:33Z</time>
      </trkpt>
      <trkpt lat="49.72716" lon="2.04647">
        <ele>170.9</ele>
        <time>2014-03-09T09:49:42Z</time>
      </trkpt>
      <trkpt lat="49.72723" lon="2.04629">
        <ele>171.5</ele>
        <time>2014-03-09T09:49:52Z</time>
      </trkpt>
      <trkpt lat="49.7273" lon="2.0461">
        <ele>170.7</ele>
        <time>2014-03-09T09:49:59Z</time>
      </trkpt>
      <trkpt lat="49.72744" lon="2.04605">
        <ele>169.4</ele>
        <time>2014-03-09T09:50:10Z</time>
      </trkpt>
      <trkpt lat="49.72757" lon="2.04602">
        <ele>168.4</ele>
        <time>2014-03-09T09:50:19Z</time>
      </trkpt>
      <trkpt lat="49.72771" lon="2.04596">
        <ele>168.3</ele>
        <time>2014-03-09T09:50:29Z</time>
      </trkpt>
      <trkpt lat="49.72783" lon="2.04585">
        <ele>168.8</ele>
        <time>2014-03-09T09:50:39Z</time>
      </trkpt>
      <trkpt lat="49.72796" lon="2.04575">
        <ele>169.4</ele>
        <time>2014-03-09T09:50:50Z</time>
      </trkpt>
      <trkpt lat="49.72808" lon="2.04585">
        <ele>169.7</ele>
        <time>2014-03-09T09:50:58Z</time>
      </trkpt>
      <trkpt lat="49.7282" lon="2.04575">
        <ele>170.4</ele>
        <time>2014-03-09T09:51:12Z</time>
      </trkpt>
      <trkpt lat="49.72828" lon="2.04557">
        <ele>171</ele>
        <time>2014-03-09T09:51:23Z</time>
      </trkpt>
      <trkpt lat="49.72842" lon="2.04547">
        <ele>169.1</ele>
        <time>2014-03-09T09:51:32Z</time>
      </trkpt>
      <trkpt lat="49.72857" lon="2.04538">
        <ele>168.4</ele>
        <time>2014-03-09T09:51:35Z</time>
      </trkpt>
      <trkpt lat="49.72865" lon="2.04525">
        <ele>166</ele>
        <time>2014-03-09T09:51:45Z</time>
      </trkpt>
      <trkpt lat="49.72869" lon="2.04505">
        <ele>175.6</ele>
        <time>2014-03-09T09:51:55Z</time>
      </trkpt>
      <trkpt lat="49.72882" lon="2.04497">
        <ele>174.8</ele>
        <time>2014-03-09T09:52:06Z</time>
      </trkpt>
      <trkpt lat="49.72896" lon="2.04496">
        <ele>173.9</ele>
        <time>2014-03-09T09:52:17Z</time>
      </trkpt>
      <trkpt lat="49.72911" lon="2.04491">
        <ele>173.4</ele>
        <time>2014-03-09T09:52:33Z</time>
      </trkpt>
      <trkpt lat="49.72924" lon="2.04487">
        <ele>174.5</ele>
        <time>2014-03-09T09:52:45Z</time>
      </trkpt>
      <trkpt lat="49.72937" lon="2.04483">
        <ele>175.4</ele>
        <time>2014-03-09T09:52:56Z</time>
      </trkpt>
      <trkpt lat="49.72951" lon="2.04482">
        <ele>175.3</ele>
        <time>2014-03-09T09:53:07Z</time>
      </trkpt>
      <trkpt lat="49.72965" lon="2.0448">
        <ele>173.9</ele>
        <time>2014-03-09T09:53:18Z</time>
      </trkpt>
      <trkpt lat="49.72979" lon="2.0448">
        <ele>172.5</ele>
        <time>2014-03-09T09:53:29Z</time>
      </trkpt>
      <trkpt lat="49.72993" lon="2.0448">
        <ele>170.8</ele>
        <time>2014-03-09T09:53:43Z</time>
      </trkpt>
      <trkpt lat="49.73005" lon="2.04469">
        <ele>169.9</ele>
        <time>2014-03-09T09:53:56Z</time>
      </trkpt>
      <trkpt lat="49.73018" lon="2.04461">
        <ele>169</ele>
        <time>2014-03-09T09:54:08Z</time>
      </trkpt>
      <trkpt lat="49.7303" lon="2.04452">
        <ele>169.8</ele>
        <time>2014-03-09T09:54:21Z</time>
      </trkpt>
      <trkpt lat="49.73037" lon="2.04433">
        <ele>170.9</ele>
        <time>2014-03-09T09:54:30Z</time>
      </trkpt>
      <trkpt lat="49.73039" lon="2.04421">
        <ele>172.1</ele>
        <time>2014-03-09T09:54:40Z</time>
      </trkpt>
      <trkpt lat="49.73036" lon="2.04418">
        <ele>172.9</ele>
        <time>2014-03-09T09:54:46Z</time>
      </trkpt>
      <trkpt lat="49.7304" lon="2.04397">
        <ele>174.5</ele>
        <time>2014-03-09T09:54:57Z</time>
      </trkpt>
      <trkpt lat="49.73046" lon="2.04379">
        <ele>176.5</ele>
        <time>2014-03-09T09:55:10Z</time>
      </trkpt>
      <trkpt lat="49.73057" lon="2.04364">
        <ele>177.5</ele>
        <time>2014-03-09T09:55:17Z</time>
      </trkpt>
      <trkpt lat="49.73071" lon="2.04355">
        <ele>178.2</ele>
        <time>2014-03-09T09:55:25Z</time>
      </trkpt>
      <trkpt lat="49.73082" lon="2.0434">
        <ele>178.6</ele>
        <time>2014-03-09T09:55:36Z</time>
      </trkpt>
      <trkpt lat="49.7309" lon="2.04325">
        <ele>178.4</ele>
        <time>2014-03-09T09:55:52Z</time>
      </trkpt>
      <trkpt lat="49.73081" lon="2.04307">
        <ele>177.6</ele>
        <time>2014-03-09T09:55:58Z</time>
      </trkpt>
      <trkpt lat="49.73072" lon="2.0429">
        <ele>176.7</ele>
        <time>2014-03-09T09:56:04Z</time>
      </trkpt>
      <trkpt lat="49.73062" lon="2.04273">
        <ele>174.2</ele>
        <time>2014-03-09T09:56:21Z</time>
      </trkpt>
      <trkpt lat="49.73052" lon="2.0426">
        <ele>173.2</ele>
        <time>2014-03-09T09:56:28Z</time>
      </trkpt>
      <trkpt lat="49.73044" lon="2.04251">
        <ele>172.7</ele>
        <time>2014-03-09T09:56:32Z</time>
      </trkpt>
      <trkpt lat="49.73043" lon="2.04244">
        <ele>172.5</ele>
        <time>2014-03-09T09:56:33Z</time>
      </trkpt>
      <trkpt lat="49.7304" lon="2.04164">
        <ele>170.9</ele>
        <time>2014-03-09T09:56:44Z</time>
      </trkpt>
      <trkpt lat="49.73037" lon="2.04154">
        <ele>169</ele>
        <time>2014-03-09T09:56:57Z</time>
      </trkpt>
      <trkpt lat="49.73042" lon="2.04152">
        <ele>168.3</ele>
        <time>2014-03-09T09:57:02Z</time>
      </trkpt>
      <trkpt lat="49.73057" lon="2.04184">
        <ele>168.2</ele>
        <time>2014-03-09T09:57:03Z</time>
      </trkpt>
      <trkpt lat="49.73064" lon="2.04166">
        <ele>167.5</ele>
        <time>2014-03-09T09:57:14Z</time>
      </trkpt>
      <trkpt lat="49.73065" lon="2.04145">
        <ele>169.1</ele>
        <time>2014-03-09T09:57:24Z</time>
      </trkpt>
      <trkpt lat="49.73068" lon="2.04124">
        <ele>169.7</ele>
        <time>2014-03-09T09:57:36Z</time>
      </trkpt>
      <trkpt lat="49.73071" lon="2.04101">
        <ele>169.4</ele>
        <time>2014-03-09T09:57:43Z</time>
      </trkpt>
      <trkpt lat="49.73077" lon="2.04082">
        <ele>169.2</ele>
        <time>2014-03-09T09:57:47Z</time>
      </trkpt>
      <trkpt lat="49.73086" lon="2.04066">
        <ele>169</ele>
        <time>2014-03-09T09:57:56Z</time>
      </trkpt>
      <trkpt lat="49.73081" lon="2.04044">
        <ele>169</ele>
        <time>2014-03-09T09:58:13Z</time>
      </trkpt>
      <trkpt lat="49.73083" lon="2.04023">
        <ele>168.5</ele>
        <time>2014-03-09T09:58:26Z</time>
      </trkpt>
      <trkpt lat="49.7308" lon="2.04">
        <ele>168.1</ele>
        <time>2014-03-09T09:58:35Z</time>
      </trkpt>
      <trkpt lat="49.73083" lon="2.03977">
        <ele>167.7</ele>
        <time>2014-03-09T09:58:45Z</time>
      </trkpt>
      <trkpt lat="49.73084" lon="2.03956">
        <ele>167.4</ele>
        <time>2014-03-09T09:58:53Z</time>
      </trkpt>
      <trkpt lat="49.7308" lon="2.03918">
        <ele>167</ele>
        <time>2014-03-09T09:59:02Z</time>
      </trkpt>
      <trkpt lat="49.73081" lon="2.03915">
        <ele>166.8</ele>
        <time>2014-03-09T09:59:08Z</time>
      </trkpt>
      <trkpt lat="49.73093" lon="2.03927">
        <ele>166.6</ele>
        <time>2014-03-09T09:59:13Z</time>
      </trkpt>
      <trkpt lat="49.73098" lon="2.03927">
        <ele>166.4</ele>
        <time>2014-03-09T09:59:16Z</time>
      </trkpt>
      <trkpt lat="49.73104" lon="2.03918">
        <ele>166.1</ele>
        <time>2014-03-09T09:59:24Z</time>
      </trkpt>
      <trkpt lat="49.73103" lon="2.03898">
        <ele>165.9</ele>
        <time>2014-03-09T09:59:30Z</time>
      </trkpt>
      <trkpt lat="49.73111" lon="2.03858">
        <ele>165.6</ele>
        <time>2014-03-09T09:59:37Z</time>
      </trkpt>
      <trkpt lat="49.73111" lon="2.03845">
        <ele>165.2</ele>
        <time>2014-03-09T09:59:47Z</time>
      </trkpt>
      <trkpt lat="49.73121" lon="2.0383">
        <ele>162.9</ele>
        <time>2014-03-09T10:00:02Z</time>
      </trkpt>
      <trkpt lat="49.73127" lon="2.0381">
        <ele>160.8</ele>
        <time>2014-03-09T10:00:13Z</time>
      </trkpt>
      <trkpt lat="49.73126" lon="2.03789">
        <ele>160.1</ele>
        <time>2014-03-09T10:00:20Z</time>
      </trkpt>
      <trkpt lat="49.73133" lon="2.03774">
        <ele>160.3</ele>
        <time>2014-03-09T10:00:27Z</time>
      </trkpt>
      <trkpt lat="49.73145" lon="2.03765">
        <ele>160.6</ele>
        <time>2014-03-09T10:00:36Z</time>
      </trkpt>
      <trkpt lat="49.73158" lon="2.03754">
        <ele>161</ele>
        <time>2014-03-09T10:00:46Z</time>
      </trkpt>
      <trkpt lat="49.73167" lon="2.03735">
        <ele>161.6</ele>
        <time>2014-03-09T10:00:55Z</time>
      </trkpt>
      <trkpt lat="49.7318" lon="2.03726">
        <ele>162.2</ele>
        <time>2014-03-09T10:01:04Z</time>
      </trkpt>
      <trkpt lat="49.73186" lon="2.03722">
        <ele>162.6</ele>
        <time>2014-03-09T10:01:10Z</time>
      </trkpt>
      <trkpt lat="49.73188" lon="2.03702">
        <ele>163.2</ele>
        <time>2014-03-09T10:01:18Z</time>
      </trkpt>
      <trkpt lat="49.73198" lon="2.03686">
        <ele>163.7</ele>
        <time>2014-03-09T10:01:25Z</time>
      </trkpt>
      <trkpt lat="49.73209" lon="2.03674">
        <ele>164.6</ele>
        <time>2014-03-09T10:01:37Z</time>
      </trkpt>
      <trkpt lat="49.73223" lon="2.03665">
        <ele>165.6</ele>
        <time>2014-03-09T10:01:48Z</time>
      </trkpt>
      <trkpt lat="49.73232" lon="2.03649">
        <ele>166.4</ele>
        <time>2014-03-09T10:01:56Z</time>
      </trkpt>
      <trkpt lat="49.73233" lon="2.03628">
        <ele>166.9</ele>
        <time>2014-03-09T10:02:02Z</time>
      </trkpt>
      <trkpt lat="49.73239" lon="2.03608">
        <ele>166.3</ele>
        <time>2014-03-09T10:02:12Z</time>
      </trkpt>
      <trkpt lat="49.73253" lon="2.03601">
        <ele>165.5</ele>
        <time>2014-03-09T10:02:22Z</time>
      </trkpt>
      <trkpt lat="49.73263" lon="2.03587">
        <ele>164.8</ele>
        <time>2014-03-09T10:02:32Z</time>
      </trkpt>
      <trkpt lat="49.73272" lon="2.03569">
        <ele>163.9</ele>
        <time>2014-03-09T10:02:43Z</time>
      </trkpt>
      <trkpt lat="49.73282" lon="2.03552">
        <ele>162.7</ele>
        <time>2014-03-09T10:02:51Z</time>
      </trkpt>
      <trkpt lat="49.73291" lon="2.03537">
        <ele>161.5</ele>
        <time>2014-03-09T10:02:59Z</time>
      </trkpt>
      <trkpt lat="49.73299" lon="2.03536">
        <ele>160.8</ele>
        <time>2014-03-09T10:03:04Z</time>
      </trkpt>
      <trkpt lat="49.73303" lon="2.03574">
        <ele>160.6</ele>
        <time>2014-03-09T10:03:05Z</time>
      </trkpt>
      <trkpt lat="49.73315" lon="2.03562">
        <ele>159.8</ele>
        <time>2014-03-09T10:03:13Z</time>
      </trkpt>
      <trkpt lat="49.73323" lon="2.03544">
        <ele>159.3</ele>
        <time>2014-03-09T10:03:22Z</time>
      </trkpt>
      <trkpt lat="49.73331" lon="2.03526">
        <ele>158.7</ele>
        <time>2014-03-09T10:03:31Z</time>
      </trkpt>
      <trkpt lat="49.7334" lon="2.03508">
        <ele>158.3</ele>
        <time>2014-03-09T10:03:38Z</time>
      </trkpt>
      <trkpt lat="49.73347" lon="2.0349">
        <ele>157.7</ele>
        <time>2014-03-09T10:03:49Z</time>
      </trkpt>
      <trkpt lat="49.73359" lon="2.03479">
        <ele>157.1</ele>
        <time>2014-03-09T10:04:00Z</time>
      </trkpt>
      <trkpt lat="49.73373" lon="2.03476">
        <ele>156.5</ele>
        <time>2014-03-09T10:04:10Z</time>
      </trkpt>
      <trkpt lat="49.73385" lon="2.03487">
        <ele>156</ele>
        <time>2014-03-09T10:04:19Z</time>
      </trkpt>
      <trkpt lat="49.73397" lon="2.03494">
        <ele>155.5</ele>
        <time>2014-03-09T10:04:27Z</time>
      </trkpt>
      <trkpt lat="49.73412" lon="2.03493">
        <ele>154.9</ele>
        <time>2014-03-09T10:04:37Z</time>
      </trkpt>
      <trkpt lat="49.73427" lon="2.03492">
        <ele>154.6</ele>
        <time>2014-03-09T10:04:43Z</time>
      </trkpt>
      <trkpt lat="49.7344" lon="2.03486">
        <ele>153.9</ele>
        <time>2014-03-09T10:04:54Z</time>
      </trkpt>
      <trkpt lat="49.73454" lon="2.03485">
        <ele>153.1</ele>
        <time>2014-03-09T10:05:08Z</time>
      </trkpt>
      <trkpt lat="49.73468" lon="2.0348">
        <ele>150.4</ele>
        <time>2014-03-09T10:05:20Z</time>
      </trkpt>
      <trkpt lat="49.73482" lon="2.03475">
        <ele>153.1</ele>
        <time>2014-03-09T10:05:30Z</time>
      </trkpt>
      <trkpt lat="49.73496" lon="2.0347">
        <ele>155.3</ele>
        <time>2014-03-09T10:05:41Z</time>
      </trkpt>
      <trkpt lat="49.73504" lon="2.03463">
        <ele>156</ele>
        <time>2014-03-09T10:05:48Z</time>
      </trkpt>
      <trkpt lat="49.73511" lon="2.03443">
        <ele>156.5</ele>
        <time>2014-03-09T10:05:54Z</time>
      </trkpt>
      <trkpt lat="49.73523" lon="2.03453">
        <ele>157.4</ele>
        <time>2014-03-09T10:06:04Z</time>
      </trkpt>
      <trkpt lat="49.73532" lon="2.03473">
        <ele>157.8</ele>
        <time>2014-03-09T10:06:12Z</time>
      </trkpt>
      <trkpt lat="49.73546" lon="2.03491">
        <ele>157.4</ele>
        <time>2014-03-09T10:06:19Z</time>
      </trkpt>
      <trkpt lat="49.73558" lon="2.03498">
        <ele>158.7</ele>
        <time>2014-03-09T10:06:30Z</time>
      </trkpt>
      <trkpt lat="49.7357" lon="2.03512">
        <ele>161</ele>
        <time>2014-03-09T10:06:40Z</time>
      </trkpt>
      <trkpt lat="49.73575" lon="2.03519">
        <ele>165</ele>
        <time>2014-03-09T10:06:50Z</time>
      </trkpt>
      <trkpt lat="49.73585" lon="2.03531">
        <ele>164.4</ele>
        <time>2014-03-09T10:07:07Z</time>
      </trkpt>
      <trkpt lat="49.73594" lon="2.03549">
        <ele>164.2</ele>
        <time>2014-03-09T10:07:20Z</time>
      </trkpt>
      <trkpt lat="49.73605" lon="2.03564">
        <ele>165.4</ele>
        <time>2014-03-09T10:07:32Z</time>
      </trkpt>
      <trkpt lat="49.7362" lon="2.03571">
        <ele>166.3</ele>
        <time>2014-03-09T10:07:42Z</time>
      </trkpt>
      <trkpt lat="49.73634" lon="2.03577">
        <ele>166.9</ele>
        <time>2014-03-09T10:07:48Z</time>
      </trkpt>
      <trkpt lat="49.73646" lon="2.03588">
        <ele>167.8</ele>
        <time>2014-03-09T10:07:57Z</time>
      </trkpt>
      <trkpt lat="49.73657" lon="2.03602">
        <ele>169.3</ele>
        <time>2014-03-09T10:08:06Z</time>
      </trkpt>
      <trkpt lat="49.73668" lon="2.03615">
        <ele>170.9</ele>
        <time>2014-03-09T10:08:15Z</time>
      </trkpt>
      <trkpt lat="49.73681" lon="2.03623">
        <ele>173.1</ele>
        <time>2014-03-09T10:08:27Z</time>
      </trkpt>
      <trkpt lat="49.73692" lon="2.03638">
        <ele>175.3</ele>
        <time>2014-03-09T10:08:39Z</time>
      </trkpt>
      <trkpt lat="49.73701" lon="2.03653">
        <ele>168.4</ele>
        <time>2014-03-09T10:09:00Z</time>
      </trkpt>
      <trkpt lat="49.73709" lon="2.0367">
        <ele>173.6</ele>
        <time>2014-03-09T10:09:12Z</time>
      </trkpt>
      <trkpt lat="49.73721" lon="2.03683">
        <ele>176.8</ele>
        <time>2014-03-09T10:09:18Z</time>
      </trkpt>
      <trkpt lat="49.73732" lon="2.03696">
        <ele>174.3</ele>
        <time>2014-03-09T10:09:29Z</time>
      </trkpt>
      <trkpt lat="49.73743" lon="2.0371">
        <ele>173.4</ele>
        <time>2014-03-09T10:09:39Z</time>
      </trkpt>
      <trkpt lat="49.73753" lon="2.03724">
        <ele>172.3</ele>
        <time>2014-03-09T10:09:51Z</time>
      </trkpt>
      <trkpt lat="49.73765" lon="2.03736">
        <ele>171.3</ele>
        <time>2014-03-09T10:10:01Z</time>
      </trkpt>
      <trkpt lat="49.73776" lon="2.0375">
        <ele>172.5</ele>
        <time>2014-03-09T10:10:11Z</time>
      </trkpt>
      <trkpt lat="49.73788" lon="2.03763">
        <ele>173.8</ele>
        <time>2014-03-09T10:10:22Z</time>
      </trkpt>
      <trkpt lat="49.73799" lon="2.03779">
        <ele>173.3</ele>
        <time>2014-03-09T10:10:34Z</time>
      </trkpt>
      <trkpt lat="49.73806" lon="2.03797">
        <ele>172.8</ele>
        <time>2014-03-09T10:10:46Z</time>
      </trkpt>
      <trkpt lat="49.73817" lon="2.03812">
        <ele>172.4</ele>
        <time>2014-03-09T10:10:58Z</time>
      </trkpt>
      <trkpt lat="49.7383" lon="2.0382">
        <ele>172.1</ele>
        <time>2014-03-09T10:11:05Z</time>
      </trkpt>
      <trkpt lat="49.73841" lon="2.03834">
        <ele>171.8</ele>
        <time>2014-03-09T10:11:13Z</time>
      </trkpt>
      <trkpt lat="49.73844" lon="2.03842">
        <ele>171.5</ele>
        <time>2014-03-09T10:11:19Z</time>
      </trkpt>
      <trkpt lat="49.73857" lon="2.0385">
        <ele>171.1</ele>
        <time>2014-03-09T10:11:29Z</time>
      </trkpt>
      <trkpt lat="49.7387" lon="2.03861">
        <ele>170.6</ele>
        <time>2014-03-09T10:11:43Z</time>
      </trkpt>
      <trkpt lat="49.73882" lon="2.03871">
        <ele>170.2</ele>
        <time>2014-03-09T10:11:51Z</time>
      </trkpt>
      <trkpt lat="49.73894" lon="2.0388">
        <ele>169.9</ele>
        <time>2014-03-09T10:11:59Z</time>
      </trkpt>
      <trkpt lat="49.73903" lon="2.03896">
        <ele>169.6</ele>
        <time>2014-03-09T10:12:08Z</time>
      </trkpt>
      <trkpt lat="49.73909" lon="2.03917">
        <ele>168.8</ele>
        <time>2014-03-09T10:12:23Z</time>
      </trkpt>
      <trkpt lat="49.7392" lon="2.03931">
        <ele>167</ele>
        <time>2014-03-09T10:12:37Z</time>
      </trkpt>
      <trkpt lat="49.73933" lon="2.03942">
        <ele>167.5</ele>
        <time>2014-03-09T10:12:45Z</time>
      </trkpt>
      <trkpt lat="49.73947" lon="2.0395">
        <ele>171.7</ele>
        <time>2014-03-09T10:12:53Z</time>
      </trkpt>
      <trkpt lat="49.73956" lon="2.03965">
        <ele>176.7</ele>
        <time>2014-03-09T10:13:03Z</time>
      </trkpt>
      <trkpt lat="49.73967" lon="2.03978">
        <ele>180</ele>
        <time>2014-03-09T10:13:15Z</time>
      </trkpt>
      <trkpt lat="49.73978" lon="2.03991">
        <ele>178.2</ele>
        <time>2014-03-09T10:13:28Z</time>
      </trkpt>
      <trkpt lat="49.73989" lon="2.04008">
        <ele>178.7</ele>
        <time>2014-03-09T10:13:42Z</time>
      </trkpt>
      <trkpt lat="49.74002" lon="2.04017">
        <ele>179</ele>
        <time>2014-03-09T10:13:51Z</time>
      </trkpt>
      <trkpt lat="49.74015" lon="2.0403">
        <ele>178.6</ele>
        <time>2014-03-09T10:13:56Z</time>
      </trkpt>
      <trkpt lat="49.74021" lon="2.04049">
        <ele>176.9</ele>
        <time>2014-03-09T10:14:12Z</time>
      </trkpt>
      <trkpt lat="49.74032" lon="2.0406">
        <ele>174.7</ele>
        <time>2014-03-09T10:14:22Z</time>
      </trkpt>
      <trkpt lat="49.74045" lon="2.04069">
        <ele>172.5</ele>
        <time>2014-03-09T10:14:33Z</time>
      </trkpt>
      <trkpt lat="49.74059" lon="2.04071">
        <ele>175.4</ele>
        <time>2014-03-09T10:14:46Z</time>
      </trkpt>
      <trkpt lat="49.74073" lon="2.04072">
        <ele>174.1</ele>
        <time>2014-03-09T10:15:08Z</time>
      </trkpt>
      <trkpt lat="49.74085" lon="2.04061">
        <ele>173.7</ele>
        <time>2014-03-09T10:15:15Z</time>
      </trkpt>
      <trkpt lat="49.74099" lon="2.04057">
        <ele>173.2</ele>
        <time>2014-03-09T10:15:24Z</time>
      </trkpt>
      <trkpt lat="49.74106" lon="2.04037">
        <ele>172.5</ele>
        <time>2014-03-09T10:15:38Z</time>
      </trkpt>
      <trkpt lat="49.74114" lon="2.04017">
        <ele>172.2</ele>
        <time>2014-03-09T10:15:46Z</time>
      </trkpt>
      <trkpt lat="49.74124" lon="2.04002">
        <ele>171.7</ele>
        <time>2014-03-09T10:15:58Z</time>
      </trkpt>
      <trkpt lat="49.74135" lon="2.04001">
        <ele>171.3</ele>
        <time>2014-03-09T10:16:06Z</time>
      </trkpt>
      <trkpt lat="49.74144" lon="2.03984">
        <ele>170.8</ele>
        <time>2014-03-09T10:16:18Z</time>
      </trkpt>
      <trkpt lat="49.74157" lon="2.03974">
        <ele>170.3</ele>
        <time>2014-03-09T10:16:31Z</time>
      </trkpt>
      <trkpt lat="49.74168" lon="2.03962">
        <ele>169.8</ele>
        <time>2014-03-09T10:16:39Z</time>
      </trkpt>
      <trkpt lat="49.74182" lon="2.03958">
        <ele>168.5</ele>
        <time>2014-03-09T10:16:50Z</time>
      </trkpt>
      <trkpt lat="49.742" lon="2.03952">
        <ele>167.2</ele>
        <time>2014-03-09T10:17:01Z</time>
      </trkpt>
      <trkpt lat="49.74211" lon="2.03941">
        <ele>165.8</ele>
        <time>2014-03-09T10:17:12Z</time>
      </trkpt>
      <trkpt lat="49.74221" lon="2.03925">
        <ele>162.4</ele>
        <time>2014-03-09T10:17:25Z</time>
      </trkpt>
      <trkpt lat="49.7423" lon="2.0391">
        <ele>159.6</ele>
        <time>2014-03-09T10:17:34Z</time>
      </trkpt>
      <trkpt lat="49.74233" lon="2.03912">
        <ele>158.7</ele>
        <time>2014-03-09T10:17:37Z</time>
      </trkpt>
      <trkpt lat="49.74243" lon="2.03927">
        <ele>157</ele>
        <time>2014-03-09T10:17:41Z</time>
      </trkpt>
      <trkpt lat="49.74257" lon="2.0392">
        <ele>149</ele>
        <time>2014-03-09T10:17:52Z</time>
      </trkpt>
      <trkpt lat="49.7427" lon="2.03909">
        <ele>153.5</ele>
        <time>2014-03-09T10:18:01Z</time>
      </trkpt>
      <trkpt lat="49.74283" lon="2.03906">
        <ele>156</ele>
        <time>2014-03-09T10:18:15Z</time>
      </trkpt>
      <trkpt lat="49.74295" lon="2.03894">
        <ele>155.8</ele>
        <time>2014-03-09T10:18:24Z</time>
      </trkpt>
      <trkpt lat="49.74307" lon="2.03882">
        <ele>154.8</ele>
        <time>2014-03-09T10:18:34Z</time>
      </trkpt>
      <trkpt lat="49.7432" lon="2.03875">
        <ele>152.7</ele>
        <time>2014-03-09T10:18:46Z</time>
      </trkpt>
      <trkpt lat="49.7432" lon="2.03872">
        <ele>152.4</ele>
        <time>2014-03-09T10:18:48Z</time>
      </trkpt>
      <trkpt lat="49.74314" lon="2.03869">
        <ele>151.8</ele>
        <time>2014-03-09T10:18:52Z</time>
      </trkpt>
      <trkpt lat="49.74324" lon="2.03854">
        <ele>150.7</ele>
        <time>2014-03-09T10:19:02Z</time>
      </trkpt>
      <trkpt lat="49.74338" lon="2.03845">
        <ele>149.9</ele>
        <time>2014-03-09T10:19:10Z</time>
      </trkpt>
      <trkpt lat="49.74352" lon="2.0384">
        <ele>149</ele>
        <time>2014-03-09T10:19:18Z</time>
      </trkpt>
      <trkpt lat="49.74359" lon="2.03843">
        <ele>152.8</ele>
        <time>2014-03-09T10:19:24Z</time>
      </trkpt>
      <trkpt lat="49.7437" lon="2.0383">
        <ele>156.5</ele>
        <time>2014-03-09T10:19:31Z</time>
      </trkpt>
      <trkpt lat="49.74383" lon="2.03819">
        <ele>159.2</ele>
        <time>2014-03-09T10:19:41Z</time>
      </trkpt>
      <trkpt lat="49.74394" lon="2.03806">
        <ele>162.2</ele>
        <time>2014-03-09T10:19:55Z</time>
      </trkpt>
      <trkpt lat="49.74404" lon="2.03791">
        <ele>163.8</ele>
        <time>2014-03-09T10:20:08Z</time>
      </trkpt>
      <trkpt lat="49.74424" lon="2.03778">
        <ele>163.8</ele>
        <time>2014-03-09T10:20:19Z</time>
      </trkpt>
      <trkpt lat="49.74424" lon="2.03778">
        <ele>163.8</ele>
        <time>2014-03-09T10:20:58Z</time>
      </trkpt>
      <trkpt lat="49.74433" lon="2.03777">
        <ele>164</ele>
        <time>2014-03-09T10:20:58Z</time>
      </trkpt>
      <trkpt lat="49.74444" lon="2.03764">
        <ele>164.9</ele>
        <time>2014-03-09T10:21:14Z</time>
      </trkpt>
      <trkpt lat="49.74456" lon="2.03752">
        <ele>165.7</ele>
        <time>2014-03-09T10:21:28Z</time>
      </trkpt>
      <trkpt lat="49.74469" lon="2.03743">
        <ele>168.5</ele>
        <time>2014-03-09T10:21:38Z</time>
      </trkpt>
      <trkpt lat="49.7448" lon="2.0373">
        <ele>166.1</ele>
        <time>2014-03-09T10:21:49Z</time>
      </trkpt>
      <trkpt lat="49.74492" lon="2.03717">
        <ele>166.4</ele>
        <time>2014-03-09T10:22:01Z</time>
      </trkpt>
      <trkpt lat="49.74504" lon="2.03706">
        <ele>166.7</ele>
        <time>2014-03-09T10:22:12Z</time>
      </trkpt>
      <trkpt lat="49.74516" lon="2.03695">
        <ele>166.9</ele>
        <time>2014-03-09T10:22:23Z</time>
      </trkpt>
      <trkpt lat="49.74529" lon="2.03683">
        <ele>167.2</ele>
        <time>2014-03-09T10:22:34Z</time>
      </trkpt>
      <trkpt lat="49.7454" lon="2.0367">
        <ele>167.4</ele>
        <time>2014-03-09T10:22:44Z</time>
      </trkpt>
      <trkpt lat="49.74634" lon="2.03014">
        <ele>130.4</ele>
        <time>2014-03-09T10:35:58Z</time>
      </trkpt>
      <trkpt lat="49.74634" lon="2.03014">
        <ele>130.4</ele>
        <time>2014-03-09T10:36:54Z</time>
      </trkpt>
      <trkpt lat="49.74715" lon="2.02372">
        <ele>93.1</ele>
        <time>2014-03-09T10:36:54Z</time>
      </trkpt>
      <trkpt lat="49.7473" lon="2.02369">
        <ele>91.8</ele>
        <time>2014-03-09T10:37:08Z</time>
      </trkpt>
      <trkpt lat="49.74737" lon="2.02388">
        <ele>90.6</ele>
        <time>2014-03-09T10:37:20Z</time>
      </trkpt>
      <trkpt lat="49.74742" lon="2.02409">
        <ele>91.1</ele>
        <time>2014-03-09T10:37:31Z</time>
      </trkpt>
      <trkpt lat="49.74744" lon="2.02423">
        <ele>93.1</ele>
        <time>2014-03-09T10:37:44Z</time>
      </trkpt>
      <trkpt lat="49.74743" lon="2.02446">
        <ele>93.3</ele>
        <time>2014-03-09T10:37:55Z</time>
      </trkpt>
      <trkpt lat="49.74748" lon="2.02467">
        <ele>93.5</ele>
        <time>2014-03-09T10:38:06Z</time>
      </trkpt>
      <trkpt lat="49.74754" lon="2.02486">
        <ele>93.5</ele>
        <time>2014-03-09T10:38:11Z</time>
      </trkpt>
      <trkpt lat="49.74764" lon="2.02502">
        <ele>93.7</ele>
        <time>2014-03-09T10:38:18Z</time>
      </trkpt>
      <trkpt lat="49.74771" lon="2.0251">
        <ele>93.8</ele>
        <time>2014-03-09T10:38:25Z</time>
      </trkpt>
      <trkpt lat="49.74769" lon="2.02532">
        <ele>94.2</ele>
        <time>2014-03-09T10:38:53Z</time>
      </trkpt>
      <trkpt lat="49.74765" lon="2.02554">
        <ele>94.4</ele>
        <time>2014-03-09T10:39:02Z</time>
      </trkpt>
      <trkpt lat="49.74758" lon="2.02579">
        <ele>94.5</ele>
        <time>2014-03-09T10:39:06Z</time>
      </trkpt>
      <trkpt lat="49.74755" lon="2.026">
        <ele>94.5</ele>
        <time>2014-03-09T10:39:11Z</time>
      </trkpt>
      <trkpt lat="49.74756" lon="2.02624">
        <ele>94.6</ele>
        <time>2014-03-09T10:39:18Z</time>
      </trkpt>
      <trkpt lat="49.74758" lon="2.02637">
        <ele>94.9</ele>
        <time>2014-03-09T10:39:35Z</time>
      </trkpt>
      <trkpt lat="49.7475" lon="2.02641">
        <ele>95.1</ele>
        <time>2014-03-09T10:39:47Z</time>
      </trkpt>
      <trkpt lat="49.74803" lon="2.02568">
        <ele>95.2</ele>
        <time>2014-03-09T10:39:52Z</time>
      </trkpt>
      <trkpt lat="49.74766" lon="2.02612">
        <ele>95.1</ele>
        <time>2014-03-09T10:40:29Z</time>
      </trkpt>
      <trkpt lat="49.74766" lon="2.02612">
        <ele>95.1</ele>
        <time>2014-03-09T10:45:16Z</time>
      </trkpt>
      <trkpt lat="49.74748" lon="2.02634">
        <ele>94.7</ele>
        <time>2014-03-09T10:45:17Z</time>
      </trkpt>
      <trkpt lat="49.74744" lon="2.02635">
        <ele>94.6</ele>
        <time>2014-03-09T10:45:19Z</time>
      </trkpt>
      <trkpt lat="49.74742" lon="2.02641">
        <ele>94.3</ele>
        <time>2014-03-09T10:45:23Z</time>
      </trkpt>
      <trkpt lat="49.74756" lon="2.0265">
        <ele>94.1</ele>
        <time>2014-03-09T10:45:28Z</time>
      </trkpt>
      <trkpt lat="49.74755" lon="2.02646">
        <ele>93.6</ele>
        <time>2014-03-09T10:45:37Z</time>
      </trkpt>
      <trkpt lat="49.7476" lon="2.02668">
        <ele>92.3</ele>
        <time>2014-03-09T10:46:00Z</time>
      </trkpt>
      <trkpt lat="49.74765" lon="2.02686">
        <ele>91.7</ele>
        <time>2014-03-09T10:46:10Z</time>
      </trkpt>
      <trkpt lat="49.74758" lon="2.02696">
        <ele>91.1</ele>
        <time>2014-03-09T10:46:21Z</time>
      </trkpt>
      <trkpt lat="49.74766" lon="2.02706">
        <ele>91.5</ele>
        <time>2014-03-09T10:46:26Z</time>
      </trkpt>
      <trkpt lat="49.74766" lon="2.02727">
        <ele>92.8</ele>
        <time>2014-03-09T10:46:33Z</time>
      </trkpt>
      <trkpt lat="49.74766" lon="2.02748">
        <ele>93.8</ele>
        <time>2014-03-09T10:46:44Z</time>
      </trkpt>
      <trkpt lat="49.74768" lon="2.02771">
        <ele>93.4</ele>
        <time>2014-03-09T10:46:54Z</time>
      </trkpt>
      <trkpt lat="49.74762" lon="2.02794">
        <ele>93.1</ele>
        <time>2014-03-09T10:47:01Z</time>
      </trkpt>
      <trkpt lat="49.74771" lon="2.02812">
        <ele>92.8</ele>
        <time>2014-03-09T10:47:10Z</time>
      </trkpt>
      <trkpt lat="49.7478" lon="2.0283">
        <ele>92.4</ele>
        <time>2014-03-09T10:47:21Z</time>
      </trkpt>
      <trkpt lat="49.74793" lon="2.02845">
        <ele>92</ele>
        <time>2014-03-09T10:47:31Z</time>
      </trkpt>
      <trkpt lat="49.748" lon="2.02864">
        <ele>91.1</ele>
        <time>2014-03-09T10:47:53Z</time>
      </trkpt>
      <trkpt lat="49.74807" lon="2.02883">
        <ele>90.2</ele>
        <time>2014-03-09T10:48:01Z</time>
      </trkpt>
      <trkpt lat="49.74799" lon="2.02897">
        <ele>88.8</ele>
        <time>2014-03-09T10:48:10Z</time>
      </trkpt>
      <trkpt lat="49.74805" lon="2.02917">
        <ele>87.5</ele>
        <time>2014-03-09T10:48:19Z</time>
      </trkpt>
      <trkpt lat="49.74819" lon="2.02924">
        <ele>86.1</ele>
        <time>2014-03-09T10:48:28Z</time>
      </trkpt>
      <trkpt lat="49.74821" lon="2.02946">
        <ele>83.6</ele>
        <time>2014-03-09T10:48:40Z</time>
      </trkpt>
      <trkpt lat="49.74826" lon="2.02968">
        <ele>82.7</ele>
        <time>2014-03-09T10:48:51Z</time>
      </trkpt>
      <trkpt lat="49.74836" lon="2.02982">
        <ele>83.8</ele>
        <time>2014-03-09T10:48:59Z</time>
      </trkpt>
      <trkpt lat="49.74848" lon="2.02993">
        <ele>84.3</ele>
        <time>2014-03-09T10:49:10Z</time>
      </trkpt>
      <trkpt lat="49.74858" lon="2.0301">
        <ele>81</ele>
        <time>2014-03-09T10:49:20Z</time>
      </trkpt>
      <trkpt lat="49.74864" lon="2.03029">
        <ele>79.1</ele>
        <time>2014-03-09T10:49:33Z</time>
      </trkpt>
      <trkpt lat="49.74872" lon="2.03046">
        <ele>75</ele>
        <time>2014-03-09T10:49:43Z</time>
      </trkpt>
      <trkpt lat="49.74875" lon="2.03067">
        <ele>75</ele>
        <time>2014-03-09T10:49:54Z</time>
      </trkpt>
      <trkpt lat="49.74877" lon="2.03083">
        <ele>75</ele>
        <time>2014-03-09T10:50:05Z</time>
      </trkpt>
      <trkpt lat="49.74888" lon="2.03095">
        <ele>75</ele>
        <time>2014-03-09T10:50:08Z</time>
      </trkpt>
      <trkpt lat="49.74901" lon="2.03106">
        <ele>79.1</ele>
        <time>2014-03-09T10:50:13Z</time>
      </trkpt>
      <trkpt lat="49.74912" lon="2.0312">
        <ele>84</ele>
        <time>2014-03-09T10:50:20Z</time>
      </trkpt>
      <trkpt lat="49.74913" lon="2.03141">
        <ele>83.1</ele>
        <time>2014-03-09T10:50:40Z</time>
      </trkpt>
      <trkpt lat="49.74922" lon="2.03159">
        <ele>81.6</ele>
        <time>2014-03-09T10:50:51Z</time>
      </trkpt>
      <trkpt lat="49.74929" lon="2.03178">
        <ele>80.1</ele>
        <time>2014-03-09T10:51:03Z</time>
      </trkpt>
      <trkpt lat="49.74932" lon="2.03198">
        <ele>78.6</ele>
        <time>2014-03-09T10:51:15Z</time>
      </trkpt>
      <trkpt lat="49.74938" lon="2.03219">
        <ele>76.3</ele>
        <time>2014-03-09T10:51:25Z</time>
      </trkpt>
      <trkpt lat="49.74946" lon="2.03238">
        <ele>76</ele>
        <time>2014-03-09T10:51:38Z</time>
      </trkpt>
      <trkpt lat="49.74955" lon="2.03256">
        <ele>75.2</ele>
        <time>2014-03-09T10:51:46Z</time>
      </trkpt>
      <trkpt lat="49.74958" lon="2.03277">
        <ele>74.1</ele>
        <time>2014-03-09T10:51:57Z</time>
      </trkpt>
      <trkpt lat="49.74962" lon="2.03298">
        <ele>72.6</ele>
        <time>2014-03-09T10:52:11Z</time>
      </trkpt>
      <trkpt lat="49.74972" lon="2.03315">
        <ele>71.8</ele>
        <time>2014-03-09T10:52:19Z</time>
      </trkpt>
      <trkpt lat="49.74981" lon="2.03332">
        <ele>71</ele>
        <time>2014-03-09T10:52:28Z</time>
      </trkpt>
      <trkpt lat="49.7499" lon="2.03352">
        <ele>70.1</ele>
        <time>2014-03-09T10:52:38Z</time>
      </trkpt>
      <trkpt lat="49.74999" lon="2.03369">
        <ele>69.3</ele>
        <time>2014-03-09T10:52:47Z</time>
      </trkpt>
      <trkpt lat="49.75008" lon="2.03389">
        <ele>68.5</ele>
        <time>2014-03-09T10:52:56Z</time>
      </trkpt>
      <trkpt lat="49.75006" lon="2.03411">
        <ele>65.9</ele>
        <time>2014-03-09T10:53:10Z</time>
      </trkpt>
      <trkpt lat="49.75009" lon="2.03431">
        <ele>63</ele>
        <time>2014-03-09T10:53:23Z</time>
      </trkpt>
      <trkpt lat="49.75017" lon="2.03449">
        <ele>61.4</ele>
        <time>2014-03-09T10:53:31Z</time>
      </trkpt>
      <trkpt lat="49.75028" lon="2.03465">
        <ele>60.1</ele>
        <time>2014-03-09T10:53:41Z</time>
      </trkpt>
      <trkpt lat="49.75033" lon="2.03485">
        <ele>60.6</ele>
        <time>2014-03-09T10:53:52Z</time>
      </trkpt>
      <trkpt lat="49.75037" lon="2.03506">
        <ele>59</ele>
        <time>2014-03-09T10:54:04Z</time>
      </trkpt>
      <trkpt lat="49.75035" lon="2.03522">
        <ele>54.9</ele>
        <time>2014-03-09T10:54:13Z</time>
      </trkpt>
      <trkpt lat="49.75044" lon="2.03539">
        <ele>53.5</ele>
        <time>2014-03-09T10:54:22Z</time>
      </trkpt>
      <trkpt lat="49.75053" lon="2.03556">
        <ele>52</ele>
        <time>2014-03-09T10:54:32Z</time>
      </trkpt>
      <trkpt lat="49.75062" lon="2.03567">
        <ele>51.1</ele>
        <time>2014-03-09T10:54:42Z</time>
      </trkpt>
      <trkpt lat="49.75075" lon="2.03575">
        <ele>51.3</ele>
        <time>2014-03-09T10:54:49Z</time>
      </trkpt>
      <trkpt lat="49.75075" lon="2.03596">
        <ele>51.6</ele>
        <time>2014-03-09T10:54:57Z</time>
      </trkpt>
      <trkpt lat="49.75077" lon="2.03616">
        <ele>52</ele>
        <time>2014-03-09T10:55:08Z</time>
      </trkpt>
      <trkpt lat="49.75081" lon="2.03633">
        <ele>55.7</ele>
        <time>2014-03-09T10:55:17Z</time>
      </trkpt>
      <trkpt lat="49.75095" lon="2.0364">
        <ele>58.6</ele>
        <time>2014-03-09T10:55:24Z</time>
      </trkpt>
      <trkpt lat="49.75106" lon="2.03653">
        <ele>60.1</ele>
        <time>2014-03-09T10:55:29Z</time>
      </trkpt>
      <trkpt lat="49.75117" lon="2.03668">
        <ele>62.2</ele>
        <time>2014-03-09T10:55:37Z</time>
      </trkpt>
      <trkpt lat="49.75129" lon="2.03681">
        <ele>65.1</ele>
        <time>2014-03-09T10:55:49Z</time>
      </trkpt>
      <trkpt lat="49.75139" lon="2.037">
        <ele>68.5</ele>
        <time>2014-03-09T10:56:01Z</time>
      </trkpt>
      <trkpt lat="49.75139" lon="2.03722">
        <ele>66.3</ele>
        <time>2014-03-09T10:56:13Z</time>
      </trkpt>
      <trkpt lat="49.7515" lon="2.03743">
        <ele>66.8</ele>
        <time>2014-03-09T10:56:19Z</time>
      </trkpt>
      <trkpt lat="49.75161" lon="2.03755">
        <ele>67.2</ele>
        <time>2014-03-09T10:56:23Z</time>
      </trkpt>
      <trkpt lat="49.75168" lon="2.03771">
        <ele>68</ele>
        <time>2014-03-09T10:56:32Z</time>
      </trkpt>
      <trkpt lat="49.75159" lon="2.03775">
        <ele>67.4</ele>
        <time>2014-03-09T10:56:41Z</time>
      </trkpt>
      <trkpt lat="49.75169" lon="2.03796">
        <ele>66.8</ele>
        <time>2014-03-09T10:56:51Z</time>
      </trkpt>
      <trkpt lat="49.75177" lon="2.03814">
        <ele>66</ele>
        <time>2014-03-09T10:57:04Z</time>
      </trkpt>
      <trkpt lat="49.75184" lon="2.03833">
        <ele>65.4</ele>
        <time>2014-03-09T10:57:13Z</time>
      </trkpt>
      <trkpt lat="49.75194" lon="2.0385">
        <ele>66.4</ele>
        <time>2014-03-09T10:57:25Z</time>
      </trkpt>
      <trkpt lat="49.75197" lon="2.03872">
        <ele>69.4</ele>
        <time>2014-03-09T10:57:36Z</time>
      </trkpt>
      <trkpt lat="49.75208" lon="2.03885">
        <ele>71.1</ele>
        <time>2014-03-09T10:57:42Z</time>
      </trkpt>
      <trkpt lat="49.75218" lon="2.03906">
        <ele>73.8</ele>
        <time>2014-03-09T10:57:52Z</time>
      </trkpt>
      <trkpt lat="49.7523" lon="2.03917">
        <ele>76.3</ele>
        <time>2014-03-09T10:58:01Z</time>
      </trkpt>
      <trkpt lat="49.7524" lon="2.03932">
        <ele>79</ele>
        <time>2014-03-09T10:58:10Z</time>
      </trkpt>
      <trkpt lat="49.75251" lon="2.03948">
        <ele>79.5</ele>
        <time>2014-03-09T10:58:20Z</time>
      </trkpt>
      <trkpt lat="49.75252" lon="2.0397">
        <ele>79.8</ele>
        <time>2014-03-09T10:58:30Z</time>
      </trkpt>
      <trkpt lat="49.75259" lon="2.03994">
        <ele>80.9</ele>
        <time>2014-03-09T10:58:42Z</time>
      </trkpt>
      <trkpt lat="49.75267" lon="2.04011">
        <ele>81.8</ele>
        <time>2014-03-09T10:58:51Z</time>
      </trkpt>
      <trkpt lat="49.75277" lon="2.04027">
        <ele>83</ele>
        <time>2014-03-09T10:59:04Z</time>
      </trkpt>
      <trkpt lat="49.75283" lon="2.04047">
        <ele>86</ele>
        <time>2014-03-09T10:59:15Z</time>
      </trkpt>
      <trkpt lat="49.75289" lon="2.04066">
        <ele>84.8</ele>
        <time>2014-03-09T10:59:25Z</time>
      </trkpt>
      <trkpt lat="49.7529" lon="2.04078">
        <ele>83.8</ele>
        <time>2014-03-09T10:59:41Z</time>
      </trkpt>
      <trkpt lat="49.75295" lon="2.04098">
        <ele>83.2</ele>
        <time>2014-03-09T10:59:51Z</time>
      </trkpt>
      <trkpt lat="49.75296" lon="2.04119">
        <ele>82.6</ele>
        <time>2014-03-09T11:00:01Z</time>
      </trkpt>
      <trkpt lat="49.75303" lon="2.04139">
        <ele>82</ele>
        <time>2014-03-09T11:00:11Z</time>
      </trkpt>
      <trkpt lat="49.75312" lon="2.04155">
        <ele>81.5</ele>
        <time>2014-03-09T11:00:20Z</time>
      </trkpt>
      <trkpt lat="49.75316" lon="2.04176">
        <ele>80.9</ele>
        <time>2014-03-09T11:00:29Z</time>
      </trkpt>
      <trkpt lat="49.75325" lon="2.04194">
        <ele>80</ele>
        <time>2014-03-09T11:00:41Z</time>
      </trkpt>
      <trkpt lat="49.75328" lon="2.04214">
        <ele>79.5</ele>
        <time>2014-03-09T11:00:48Z</time>
      </trkpt>
      <trkpt lat="49.75335" lon="2.04234">
        <ele>78.7</ele>
        <time>2014-03-09T11:00:59Z</time>
      </trkpt>
      <trkpt lat="49.7534" lon="2.04253">
        <ele>78</ele>
        <time>2014-03-09T11:01:09Z</time>
      </trkpt>
      <trkpt lat="49.75345" lon="2.0426">
        <ele>77.4</ele>
        <time>2014-03-09T11:01:16Z</time>
      </trkpt>
      <trkpt lat="49.7534" lon="2.04279">
        <ele>77.3</ele>
        <time>2014-03-09T11:01:24Z</time>
      </trkpt>
      <trkpt lat="49.75345" lon="2.043">
        <ele>78.7</ele>
        <time>2014-03-09T11:01:34Z</time>
      </trkpt>
      <trkpt lat="49.75353" lon="2.04319">
        <ele>80.4</ele>
        <time>2014-03-09T11:01:45Z</time>
      </trkpt>
      <trkpt lat="49.75361" lon="2.04337">
        <ele>82.2</ele>
        <time>2014-03-09T11:01:56Z</time>
      </trkpt>
      <trkpt lat="49.75365" lon="2.04358">
        <ele>84.1</ele>
        <time>2014-03-09T11:02:07Z</time>
      </trkpt>
      <trkpt lat="49.75372" lon="2.04377">
        <ele>85.8</ele>
        <time>2014-03-09T11:02:17Z</time>
      </trkpt>
      <trkpt lat="49.7538" lon="2.04396">
        <ele>82.8</ele>
        <time>2014-03-09T11:02:27Z</time>
      </trkpt>
      <trkpt lat="49.75383" lon="2.04413">
        <ele>82.4</ele>
        <time>2014-03-09T11:02:35Z</time>
      </trkpt>
      <trkpt lat="49.75392" lon="2.0443">
        <ele>81.7</ele>
        <time>2014-03-09T11:02:48Z</time>
      </trkpt>
      <trkpt lat="49.75398" lon="2.04451">
        <ele>81.2</ele>
        <time>2014-03-09T11:02:59Z</time>
      </trkpt>
      <trkpt lat="49.75403" lon="2.0447">
        <ele>80.7</ele>
        <time>2014-03-09T11:03:09Z</time>
      </trkpt>
      <trkpt lat="49.75406" lon="2.04491">
        <ele>80.2</ele>
        <time>2014-03-09T11:03:18Z</time>
      </trkpt>
      <trkpt lat="49.75412" lon="2.04513">
        <ele>82.3</ele>
        <time>2014-03-09T11:03:29Z</time>
      </trkpt>
      <trkpt lat="49.75417" lon="2.0452">
        <ele>80</ele>
        <time>2014-03-09T11:03:36Z</time>
      </trkpt>
      <trkpt lat="49.7542" lon="2.0452">
        <ele>79</ele>
        <time>2014-03-09T11:03:39Z</time>
      </trkpt>
      <trkpt lat="49.75419" lon="2.04542">
        <ele>78.1</ele>
        <time>2014-03-09T11:03:44Z</time>
      </trkpt>
      <trkpt lat="49.75431" lon="2.04555">
        <ele>77.2</ele>
        <time>2014-03-09T11:03:57Z</time>
      </trkpt>
      <trkpt lat="49.75437" lon="2.0457">
        <ele>79.8</ele>
        <time>2014-03-09T11:04:05Z</time>
      </trkpt>
      <trkpt lat="49.75438" lon="2.04592">
        <ele>79.2</ele>
        <time>2014-03-09T11:04:13Z</time>
      </trkpt>
      <trkpt lat="49.75445" lon="2.04609">
        <ele>78.4</ele>
        <time>2014-03-09T11:04:25Z</time>
      </trkpt>
      <trkpt lat="49.75453" lon="2.04629">
        <ele>77.8</ele>
        <time>2014-03-09T11:04:35Z</time>
      </trkpt>
      <trkpt lat="49.75453" lon="2.04648">
        <ele>77.4</ele>
        <time>2014-03-09T11:04:41Z</time>
      </trkpt>
      <trkpt lat="49.75466" lon="2.04658">
        <ele>76.5</ele>
        <time>2014-03-09T11:04:55Z</time>
      </trkpt>
      <trkpt lat="49.75469" lon="2.04679">
        <ele>76</ele>
        <time>2014-03-09T11:05:02Z</time>
      </trkpt>
      <trkpt lat="49.75475" lon="2.047">
        <ele>78.9</ele>
        <time>2014-03-09T11:05:14Z</time>
      </trkpt>
      <trkpt lat="49.75483" lon="2.04718">
        <ele>80.8</ele>
        <time>2014-03-09T11:05:25Z</time>
      </trkpt>
      <trkpt lat="49.75489" lon="2.04737">
        <ele>79.5</ele>
        <time>2014-03-09T11:05:37Z</time>
      </trkpt>
      <trkpt lat="49.75497" lon="2.04755">
        <ele>78.2</ele>
        <time>2014-03-09T11:05:48Z</time>
      </trkpt>
      <trkpt lat="49.75504" lon="2.04774">
        <ele>80.1</ele>
        <time>2014-03-09T11:06:01Z</time>
      </trkpt>
      <trkpt lat="49.75508" lon="2.04795">
        <ele>78</ele>
        <time>2014-03-09T11:06:12Z</time>
      </trkpt>
      <trkpt lat="49.75513" lon="2.04819">
        <ele>82.4</ele>
        <time>2014-03-09T11:06:22Z</time>
      </trkpt>
      <trkpt lat="49.75516" lon="2.0484">
        <ele>81.5</ele>
        <time>2014-03-09T11:06:33Z</time>
      </trkpt>
      <trkpt lat="49.75517" lon="2.04862">
        <ele>80.5</ele>
        <time>2014-03-09T11:06:40Z</time>
      </trkpt>
      <trkpt lat="49.75524" lon="2.04881">
        <ele>79.5</ele>
        <time>2014-03-09T11:06:52Z</time>
      </trkpt>
      <trkpt lat="49.7553" lon="2.04901">
        <ele>80.2</ele>
        <time>2014-03-09T11:07:04Z</time>
      </trkpt>
      <trkpt lat="49.75535" lon="2.04922">
        <ele>79.6</ele>
        <time>2014-03-09T11:07:16Z</time>
      </trkpt>
      <trkpt lat="49.75536" lon="2.04944">
        <ele>81</ele>
        <time>2014-03-09T11:07:24Z</time>
      </trkpt>
      <trkpt lat="49.75541" lon="2.04964">
        <ele>82.3</ele>
        <time>2014-03-09T11:07:35Z</time>
      </trkpt>
      <trkpt lat="49.75546" lon="2.04985">
        <ele>83.7</ele>
        <time>2014-03-09T11:07:46Z</time>
      </trkpt>
      <trkpt lat="49.75555" lon="2.05001">
        <ele>84.4</ele>
        <time>2014-03-09T11:08:00Z</time>
      </trkpt>
      <trkpt lat="49.75555" lon="2.05023">
        <ele>82.8</ele>
        <time>2014-03-09T11:08:08Z</time>
      </trkpt>
      <trkpt lat="49.75556" lon="2.05044">
        <ele>80.7</ele>
        <time>2014-03-09T11:08:18Z</time>
      </trkpt>
      <trkpt lat="49.75566" lon="2.0506">
        <ele>80</ele>
        <time>2014-03-09T11:08:31Z</time>
      </trkpt>
      <trkpt lat="49.75566" lon="2.05082">
        <ele>82.1</ele>
        <time>2014-03-09T11:08:41Z</time>
      </trkpt>
      <trkpt lat="49.75568" lon="2.05105">
        <ele>84.4</ele>
        <time>2014-03-09T11:08:51Z</time>
      </trkpt>
      <trkpt lat="49.75571" lon="2.05125">
        <ele>87</ele>
        <time>2014-03-09T11:08:58Z</time>
      </trkpt>
      <trkpt lat="49.75578" lon="2.05144">
        <ele>91.2</ele>
        <time>2014-03-09T11:09:12Z</time>
      </trkpt>
      <trkpt lat="49.75579" lon="2.05165">
        <ele>92.4</ele>
        <time>2014-03-09T11:09:20Z</time>
      </trkpt>
      <trkpt lat="49.7558" lon="2.05187">
        <ele>89.3</ele>
        <time>2014-03-09T11:09:29Z</time>
      </trkpt>
      <trkpt lat="49.7558" lon="2.05209">
        <ele>88.4</ele>
        <time>2014-03-09T11:09:40Z</time>
      </trkpt>
      <trkpt lat="49.7558" lon="2.05232">
        <ele>88.5</ele>
        <time>2014-03-09T11:09:50Z</time>
      </trkpt>
      <trkpt lat="49.75581" lon="2.05255">
        <ele>90</ele>
        <time>2014-03-09T11:10:01Z</time>
      </trkpt>
      <trkpt lat="49.7558" lon="2.05276">
        <ele>91</ele>
        <time>2014-03-09T11:10:08Z</time>
      </trkpt>
      <trkpt lat="49.75582" lon="2.05299">
        <ele>91.9</ele>
        <time>2014-03-09T11:10:16Z</time>
      </trkpt>
      <trkpt lat="49.75582" lon="2.05322">
        <ele>93.6</ele>
        <time>2014-03-09T11:10:30Z</time>
      </trkpt>
      <trkpt lat="49.75581" lon="2.05346">
        <ele>95</ele>
        <time>2014-03-09T11:10:42Z</time>
      </trkpt>
      <trkpt lat="49.75577" lon="2.05366">
        <ele>96</ele>
        <time>2014-03-09T11:10:47Z</time>
      </trkpt>
      <trkpt lat="49.75575" lon="2.05388">
        <ele>98.9</ele>
        <time>2014-03-09T11:11:01Z</time>
      </trkpt>
      <trkpt lat="49.75572" lon="2.0541">
        <ele>98.4</ele>
        <time>2014-03-09T11:11:11Z</time>
      </trkpt>
      <trkpt lat="49.75575" lon="2.05431">
        <ele>96.3</ele>
        <time>2014-03-09T11:11:29Z</time>
      </trkpt>
      <trkpt lat="49.7557" lon="2.05452">
        <ele>93.1</ele>
        <time>2014-03-09T11:11:40Z</time>
      </trkpt>
      <trkpt lat="49.75564" lon="2.05473">
        <ele>91.2</ele>
        <time>2014-03-09T11:11:49Z</time>
      </trkpt>
      <trkpt lat="49.75562" lon="2.05493">
        <ele>89.7</ele>
        <time>2014-03-09T11:12:00Z</time>
      </trkpt>
      <trkpt lat="49.75559" lon="2.05516">
        <ele>86.3</ele>
        <time>2014-03-09T11:12:14Z</time>
      </trkpt>
      <trkpt lat="49.75554" lon="2.05536">
        <ele>91</ele>
        <time>2014-03-09T11:12:22Z</time>
      </trkpt>
      <trkpt lat="49.75548" lon="2.05558">
        <ele>94.4</ele>
        <time>2014-03-09T11:12:32Z</time>
      </trkpt>
      <trkpt lat="49.75544" lon="2.05578">
        <ele>100.4</ele>
        <time>2014-03-09T11:12:45Z</time>
      </trkpt>
      <trkpt lat="49.7554" lon="2.05599">
        <ele>104.2</ele>
        <time>2014-03-09T11:12:54Z</time>
      </trkpt>
      <trkpt lat="49.75536" lon="2.05622">
        <ele>104.3</ele>
        <time>2014-03-09T11:13:04Z</time>
      </trkpt>
      <trkpt lat="49.75533" lon="2.05644">
        <ele>107</ele>
        <time>2014-03-09T11:13:13Z</time>
      </trkpt>
      <trkpt lat="49.75532" lon="2.05666">
        <ele>106.3</ele>
        <time>2014-03-09T11:13:24Z</time>
      </trkpt>
      <trkpt lat="49.75531" lon="2.05688">
        <ele>104.4</ele>
        <time>2014-03-09T11:13:36Z</time>
      </trkpt>
      <trkpt lat="49.75533" lon="2.05701">
        <ele>105.4</ele>
        <time>2014-03-09T11:13:47Z</time>
      </trkpt>
      <trkpt lat="49.75529" lon="2.05722">
        <ele>109</ele>
        <time>2014-03-09T11:14:11Z</time>
      </trkpt>
      <trkpt lat="49.75532" lon="2.05743">
        <ele>109.5</ele>
        <time>2014-03-09T11:14:22Z</time>
      </trkpt>
      <trkpt lat="49.75532" lon="2.05764">
        <ele>106.9</ele>
        <time>2014-03-09T11:14:33Z</time>
      </trkpt>
      <trkpt lat="49.75542" lon="2.05782">
        <ele>104</ele>
        <time>2014-03-09T11:14:41Z</time>
      </trkpt>
      <trkpt lat="49.75535" lon="2.05801">
        <ele>100.4</ele>
        <time>2014-03-09T11:14:50Z</time>
      </trkpt>
      <trkpt lat="49.75527" lon="2.05819">
        <ele>96.5</ele>
        <time>2014-03-09T11:15:01Z</time>
      </trkpt>
      <trkpt lat="49.75527" lon="2.05842">
        <ele>91.4</ele>
        <time>2014-03-09T11:15:13Z</time>
      </trkpt>
      <trkpt lat="49.75529" lon="2.05848">
        <ele>89.4</ele>
        <time>2014-03-09T11:15:20Z</time>
      </trkpt>
      <trkpt lat="49.75538" lon="2.05831">
        <ele>86.3</ele>
        <time>2014-03-09T11:15:29Z</time>
      </trkpt>
      <trkpt lat="49.75541" lon="2.05809">
        <ele>87.6</ele>
        <time>2014-03-09T11:15:39Z</time>
      </trkpt>
      <trkpt lat="49.75543" lon="2.05788">
        <ele>88.9</ele>
        <time>2014-03-09T11:15:48Z</time>
      </trkpt>
      <trkpt lat="49.75549" lon="2.05768">
        <ele>91</ele>
        <time>2014-03-09T11:15:59Z</time>
      </trkpt>
      <trkpt lat="49.75555" lon="2.05749">
        <ele>92</ele>
        <time>2014-03-09T11:16:11Z</time>
      </trkpt>
      <trkpt lat="49.75556" lon="2.05726">
        <ele>92.8</ele>
        <time>2014-03-09T11:16:19Z</time>
      </trkpt>
      <trkpt lat="49.75558" lon="2.05705">
        <ele>93.6</ele>
        <time>2014-03-09T11:16:29Z</time>
      </trkpt>
      <trkpt lat="49.75561" lon="2.057">
        <ele>93.1</ele>
        <time>2014-03-09T11:16:35Z</time>
      </trkpt>
      <trkpt lat="49.75571" lon="2.05712">
        <ele>87.7</ele>
        <time>2014-03-09T11:16:55Z</time>
      </trkpt>
      <trkpt lat="49.75567" lon="2.05732">
        <ele>85.6</ele>
        <time>2014-03-09T11:17:12Z</time>
      </trkpt>
      <trkpt lat="49.75567" lon="2.05754">
        <ele>81.3</ele>
        <time>2014-03-09T11:17:26Z</time>
      </trkpt>
      <trkpt lat="49.7557" lon="2.05776">
        <ele>79.5</ele>
        <time>2014-03-09T11:17:36Z</time>
      </trkpt>
      <trkpt lat="49.75574" lon="2.05798">
        <ele>76.5</ele>
        <time>2014-03-09T11:17:46Z</time>
      </trkpt>
      <trkpt lat="49.75573" lon="2.05819">
        <ele>77.4</ele>
        <time>2014-03-09T11:17:54Z</time>
      </trkpt>
      <trkpt lat="49.75574" lon="2.05842">
        <ele>78.3</ele>
        <time>2014-03-09T11:18:02Z</time>
      </trkpt>
      <trkpt lat="49.75574" lon="2.05863">
        <ele>79</ele>
        <time>2014-03-09T11:18:15Z</time>
      </trkpt>
      <trkpt lat="49.7558" lon="2.05885">
        <ele>74.8</ele>
        <time>2014-03-09T11:18:26Z</time>
      </trkpt>
      <trkpt lat="49.75582" lon="2.05903">
        <ele>74</ele>
        <time>2014-03-09T11:18:37Z</time>
      </trkpt>
      <trkpt lat="49.75577" lon="2.05922">
        <ele>72.7</ele>
        <time>2014-03-09T11:18:46Z</time>
      </trkpt>
      <trkpt lat="49.75571" lon="2.05942">
        <ele>71</ele>
        <time>2014-03-09T11:18:56Z</time>
      </trkpt>
      <trkpt lat="49.7557" lon="2.05963">
        <ele>72.9</ele>
        <time>2014-03-09T11:19:05Z</time>
      </trkpt>
      <trkpt lat="49.75573" lon="2.05972">
        <ele>71.4</ele>
        <time>2014-03-09T11:19:12Z</time>
      </trkpt>
      <trkpt lat="49.7559" lon="2.05993">
        <ele>79</ele>
        <time>2014-03-09T11:23:33Z</time>
      </trkpt>
      <trkpt lat="49.75579" lon="2.06022">
        <ele>82.3</ele>
        <time>2014-03-09T11:24:06Z</time>
      </trkpt>
      <trkpt lat="49.75579" lon="2.06022">
        <ele>82.3</ele>
        <time>2014-03-09T11:25:59Z</time>
      </trkpt>
      <trkpt lat="49.75571" lon="2.0605">
        <ele>81.3</ele>
        <time>2014-03-09T11:25:59Z</time>
      </trkpt>
      <trkpt lat="49.75569" lon="2.06072">
        <ele>80.8</ele>
        <time>2014-03-09T11:26:11Z</time>
      </trkpt>
      <trkpt lat="49.75579" lon="2.0612">
        <ele>76.6</ele>
        <time>2014-03-09T11:26:26Z</time>
      </trkpt>
      <trkpt lat="49.75579" lon="2.0612">
        <ele>76.6</ele>
        <time>2014-03-09T11:27:07Z</time>
      </trkpt>
      <trkpt lat="49.7558" lon="2.06151">
        <ele>72.7</ele>
        <time>2014-03-09T11:27:13Z</time>
      </trkpt>
      <trkpt lat="49.75588" lon="2.06178">
        <ele>76.9</ele>
        <time>2014-03-09T11:27:32Z</time>
      </trkpt>
      <trkpt lat="49.75588" lon="2.06178">
        <ele>76.9</ele>
        <time>2014-03-09T11:28:06Z</time>
      </trkpt>
      <trkpt lat="49.75592" lon="2.06186">
        <ele>76.4</ele>
        <time>2014-03-09T11:28:06Z</time>
      </trkpt>
      <trkpt lat="49.75584" lon="2.06203">
        <ele>76.4</ele>
        <time>2014-03-09T11:28:19Z</time>
      </trkpt>
      <trkpt lat="49.75586" lon="2.06225">
        <ele>79.2</ele>
        <time>2014-03-09T11:28:32Z</time>
      </trkpt>
      <trkpt lat="49.75587" lon="2.06249">
        <ele>80.4</ele>
        <time>2014-03-09T11:28:42Z</time>
      </trkpt>
      <trkpt lat="49.75583" lon="2.06274">
        <ele>81.3</ele>
        <time>2014-03-09T11:28:53Z</time>
      </trkpt>
      <trkpt lat="49.75579" lon="2.06296">
        <ele>81.6</ele>
        <time>2014-03-09T11:28:58Z</time>
      </trkpt>
      <trkpt lat="49.75582" lon="2.06317">
        <ele>83</ele>
        <time>2014-03-09T11:29:16Z</time>
      </trkpt>
      <trkpt lat="49.75584" lon="2.06338">
        <ele>80</ele>
        <time>2014-03-09T11:29:25Z</time>
      </trkpt>
      <trkpt lat="49.75584" lon="2.06362">
        <ele>76.1</ele>
        <time>2014-03-09T11:29:36Z</time>
      </trkpt>
      <trkpt lat="49.75588" lon="2.06382">
        <ele>75</ele>
        <time>2014-03-09T11:29:51Z</time>
      </trkpt>
      <trkpt lat="49.75588" lon="2.06404">
        <ele>75.4</ele>
        <time>2014-03-09T11:30:02Z</time>
      </trkpt>
      <trkpt lat="49.75591" lon="2.06426">
        <ele>77.5</ele>
        <time>2014-03-09T11:30:14Z</time>
      </trkpt>
      <trkpt lat="49.75591" lon="2.06448">
        <ele>75.5</ele>
        <time>2014-03-09T11:30:22Z</time>
      </trkpt>
      <trkpt lat="49.7559" lon="2.06471">
        <ele>69.9</ele>
        <time>2014-03-09T11:30:31Z</time>
      </trkpt>
      <trkpt lat="49.75591" lon="2.06493">
        <ele>70.5</ele>
        <time>2014-03-09T11:30:42Z</time>
      </trkpt>
      <trkpt lat="49.75594" lon="2.06515">
        <ele>72.5</ele>
        <time>2014-03-09T11:30:53Z</time>
      </trkpt>
      <trkpt lat="49.75591" lon="2.06537">
        <ele>70.2</ele>
        <time>2014-03-09T11:31:07Z</time>
      </trkpt>
      <trkpt lat="49.75586" lon="2.06558">
        <ele>69.2</ele>
        <time>2014-03-09T11:31:17Z</time>
      </trkpt>
      <trkpt lat="49.75585" lon="2.06584">
        <ele>70</ele>
        <time>2014-03-09T11:31:26Z</time>
      </trkpt>
      <trkpt lat="49.75587" lon="2.06606">
        <ele>72.4</ele>
        <time>2014-03-09T11:31:39Z</time>
      </trkpt>
      <trkpt lat="49.75584" lon="2.06627">
        <ele>73.4</ele>
        <time>2014-03-09T11:31:52Z</time>
      </trkpt>
      <trkpt lat="49.75583" lon="2.06651">
        <ele>72.2</ele>
        <time>2014-03-09T11:32:02Z</time>
      </trkpt>
      <trkpt lat="49.75577" lon="2.06671">
        <ele>67.9</ele>
        <time>2014-03-09T11:32:12Z</time>
      </trkpt>
      <trkpt lat="49.75576" lon="2.06683">
        <ele>70.1</ele>
        <time>2014-03-09T11:32:18Z</time>
      </trkpt>
      <trkpt lat="49.75581" lon="2.06703">
        <ele>70.7</ele>
        <time>2014-03-09T11:32:29Z</time>
      </trkpt>
      <trkpt lat="49.75577" lon="2.06724">
        <ele>71.1</ele>
        <time>2014-03-09T11:32:37Z</time>
      </trkpt>
      <trkpt lat="49.75575" lon="2.06747">
        <ele>71.8</ele>
        <time>2014-03-09T11:32:49Z</time>
      </trkpt>
      <trkpt lat="49.75574" lon="2.06768">
        <ele>72.3</ele>
        <time>2014-03-09T11:32:59Z</time>
      </trkpt>
      <trkpt lat="49.75574" lon="2.06789">
        <ele>72.7</ele>
        <time>2014-03-09T11:33:07Z</time>
      </trkpt>
      <trkpt lat="49.75571" lon="2.0681">
        <ele>72.4</ele>
        <time>2014-03-09T11:33:18Z</time>
      </trkpt>
      <trkpt lat="49.75567" lon="2.06834">
        <ele>71.2</ele>
        <time>2014-03-09T11:33:30Z</time>
      </trkpt>
      <trkpt lat="49.75567" lon="2.06856">
        <ele>70.1</ele>
        <time>2014-03-09T11:33:41Z</time>
      </trkpt>
      <trkpt lat="49.75568" lon="2.06878">
        <ele>68.1</ele>
        <time>2014-03-09T11:34:01Z</time>
      </trkpt>
      <trkpt lat="49.75564" lon="2.06899">
        <ele>67</ele>
        <time>2014-03-09T11:34:12Z</time>
      </trkpt>
      <trkpt lat="49.75561" lon="2.06927">
        <ele>65.4</ele>
        <time>2014-03-09T11:34:24Z</time>
      </trkpt>
      <trkpt lat="49.7556" lon="2.0695">
        <ele>63.8</ele>
        <time>2014-03-09T11:34:37Z</time>
      </trkpt>
      <trkpt lat="49.75562" lon="2.06972">
        <ele>62.1</ele>
        <time>2014-03-09T11:34:50Z</time>
      </trkpt>
      <trkpt lat="49.75559" lon="2.06993">
        <ele>61.6</ele>
        <time>2014-03-09T11:35:00Z</time>
      </trkpt>
      <trkpt lat="49.75556" lon="2.07015">
        <ele>64.6</ele>
        <time>2014-03-09T11:35:08Z</time>
      </trkpt>
      <trkpt lat="49.75554" lon="2.07039">
        <ele>68.1</ele>
        <time>2014-03-09T11:35:18Z</time>
      </trkpt>
      <trkpt lat="49.75549" lon="2.07062">
        <ele>70.5</ele>
        <time>2014-03-09T11:35:27Z</time>
      </trkpt>
      <trkpt lat="49.75543" lon="2.07082">
        <ele>72.5</ele>
        <time>2014-03-09T11:35:36Z</time>
      </trkpt>
      <trkpt lat="49.75539" lon="2.07103">
        <ele>75</ele>
        <time>2014-03-09T11:35:47Z</time>
      </trkpt>
      <trkpt lat="49.75541" lon="2.07115">
        <ele>73</ele>
        <time>2014-03-09T11:35:53Z</time>
      </trkpt>
      <trkpt lat="49.75546" lon="2.07117">
        <ele>73</ele>
        <time>2014-03-09T11:35:57Z</time>
      </trkpt>
      <trkpt lat="49.75555" lon="2.07105">
        <ele>73</ele>
        <time>2014-03-09T11:36:01Z</time>
      </trkpt>
      <trkpt lat="49.75554" lon="2.07099">
        <ele>73</ele>
        <time>2014-03-09T11:36:04Z</time>
      </trkpt>
      <trkpt lat="49.75548" lon="2.07119">
        <ele>72.3</ele>
        <time>2014-03-09T11:36:15Z</time>
      </trkpt>
      <trkpt lat="49.75545" lon="2.07141">
        <ele>73.2</ele>
        <time>2014-03-09T11:36:28Z</time>
      </trkpt>
      <trkpt lat="49.75542" lon="2.07162">
        <ele>73.7</ele>
        <time>2014-03-09T11:36:35Z</time>
      </trkpt>
      <trkpt lat="49.75542" lon="2.07184">
        <ele>74.3</ele>
        <time>2014-03-09T11:36:44Z</time>
      </trkpt>
      <trkpt lat="49.75547" lon="2.07202">
        <ele>74.6</ele>
        <time>2014-03-09T11:36:57Z</time>
      </trkpt>
      <trkpt lat="49.75558" lon="2.07216">
        <ele>73.2</ele>
        <time>2014-03-09T11:37:04Z</time>
      </trkpt>
      <trkpt lat="49.75563" lon="2.07237">
        <ele>72.8</ele>
        <time>2014-03-09T11:37:14Z</time>
      </trkpt>
      <trkpt lat="49.75572" lon="2.07252">
        <ele>74.9</ele>
        <time>2014-03-09T11:37:24Z</time>
      </trkpt>
      <trkpt lat="49.75593" lon="2.07278">
        <ele>73.6</ele>
        <time>2014-03-09T11:37:39Z</time>
      </trkpt>
      <trkpt lat="49.75593" lon="2.07278">
        <ele>73.6</ele>
        <time>2014-03-09T11:38:18Z</time>
      </trkpt>
      <trkpt lat="49.75601" lon="2.07295">
        <ele>72.8</ele>
        <time>2014-03-09T11:38:21Z</time>
      </trkpt>
      <trkpt lat="49.75605" lon="2.07315">
        <ele>72</ele>
        <time>2014-03-09T11:38:31Z</time>
      </trkpt>
      <trkpt lat="49.75606" lon="2.07337">
        <ele>71.1</ele>
        <time>2014-03-09T11:38:42Z</time>
      </trkpt>
      <trkpt lat="49.75604" lon="2.07358">
        <ele>69.9</ele>
        <time>2014-03-09T11:38:56Z</time>
      </trkpt>
      <trkpt lat="49.75597" lon="2.07377">
        <ele>69</ele>
        <time>2014-03-09T11:39:06Z</time>
      </trkpt>
      <trkpt lat="49.75591" lon="2.07399">
        <ele>70.5</ele>
        <time>2014-03-09T11:39:16Z</time>
      </trkpt>
      <trkpt lat="49.75591" lon="2.07421">
        <ele>72</ele>
        <time>2014-03-09T11:39:26Z</time>
      </trkpt>
      <trkpt lat="49.75585" lon="2.07442">
        <ele>73.4</ele>
        <time>2014-03-09T11:39:36Z</time>
      </trkpt>
      <trkpt lat="49.75588" lon="2.07463">
        <ele>73.7</ele>
        <time>2014-03-09T11:39:48Z</time>
      </trkpt>
      <trkpt lat="49.75579" lon="2.07485">
        <ele>73.5</ele>
        <time>2014-03-09T11:39:52Z</time>
      </trkpt>
      <trkpt lat="49.75573" lon="2.07507">
        <ele>73.4</ele>
        <time>2014-03-09T11:39:57Z</time>
      </trkpt>
      <trkpt lat="49.75576" lon="2.07529">
        <ele>72.6</ele>
        <time>2014-03-09T11:40:16Z</time>
      </trkpt>
      <trkpt lat="49.75574" lon="2.07553">
        <ele>72.1</ele>
        <time>2014-03-09T11:40:30Z</time>
      </trkpt>
      <trkpt lat="49.75574" lon="2.07576">
        <ele>71.7</ele>
        <time>2014-03-09T11:40:41Z</time>
      </trkpt>
      <trkpt lat="49.75575" lon="2.07598">
        <ele>71.2</ele>
        <time>2014-03-09T11:40:53Z</time>
      </trkpt>
      <trkpt lat="49.75573" lon="2.0762">
        <ele>74.3</ele>
        <time>2014-03-09T11:41:04Z</time>
      </trkpt>
      <trkpt lat="49.75568" lon="2.07641">
        <ele>73.5</ele>
        <time>2014-03-09T11:41:16Z</time>
      </trkpt>
      <trkpt lat="49.75563" lon="2.07662">
        <ele>71.9</ele>
        <time>2014-03-09T11:41:28Z</time>
      </trkpt>
      <trkpt lat="49.75559" lon="2.07684">
        <ele>70.2</ele>
        <time>2014-03-09T11:41:40Z</time>
      </trkpt>
      <trkpt lat="49.75558" lon="2.07706">
        <ele>69.1</ele>
        <time>2014-03-09T11:41:50Z</time>
      </trkpt>
      <trkpt lat="49.75556" lon="2.07728">
        <ele>69.9</ele>
        <time>2014-03-09T11:42:01Z</time>
      </trkpt>
      <trkpt lat="49.75553" lon="2.07749">
        <ele>70.7</ele>
        <time>2014-03-09T11:42:13Z</time>
      </trkpt>
      <trkpt lat="49.75549" lon="2.0777">
        <ele>71.4</ele>
        <time>2014-03-09T11:42:22Z</time>
      </trkpt>
      <trkpt lat="49.75548" lon="2.07792">
        <ele>72.1</ele>
        <time>2014-03-09T11:42:33Z</time>
      </trkpt>
      <trkpt lat="49.75544" lon="2.07817">
        <ele>72.8</ele>
        <time>2014-03-09T11:42:42Z</time>
      </trkpt>
      <trkpt lat="49.75535" lon="2.07835">
        <ele>74.4</ele>
        <time>2014-03-09T11:42:53Z</time>
      </trkpt>
      <trkpt lat="49.75526" lon="2.07852">
        <ele>76.3</ele>
        <time>2014-03-09T11:43:03Z</time>
      </trkpt>
      <trkpt lat="49.75523" lon="2.07873">
        <ele>78</ele>
        <time>2014-03-09T11:43:18Z</time>
      </trkpt>
      <trkpt lat="49.75518" lon="2.07894">
        <ele>78.9</ele>
        <time>2014-03-09T11:43:27Z</time>
      </trkpt>
      <trkpt lat="49.7551" lon="2.07913">
        <ele>78.5</ele>
        <time>2014-03-09T11:43:35Z</time>
      </trkpt>
      <trkpt lat="49.75504" lon="2.07932">
        <ele>77.8</ele>
        <time>2014-03-09T11:43:47Z</time>
      </trkpt>
      <trkpt lat="49.75496" lon="2.0795">
        <ele>76.6</ele>
        <time>2014-03-09T11:43:54Z</time>
      </trkpt>
      <trkpt lat="49.75485" lon="2.07965">
        <ele>74.6</ele>
        <time>2014-03-09T11:44:05Z</time>
      </trkpt>
      <trkpt lat="49.75476" lon="2.07981">
        <ele>74.9</ele>
        <time>2014-03-09T11:44:17Z</time>
      </trkpt>
      <trkpt lat="49.75466" lon="2.07999">
        <ele>75.8</ele>
        <time>2014-03-09T11:44:26Z</time>
      </trkpt>
      <trkpt lat="49.7546" lon="2.08018">
        <ele>77.4</ele>
        <time>2014-03-09T11:44:41Z</time>
      </trkpt>
      <trkpt lat="49.75465" lon="2.08039">
        <ele>78.6</ele>
        <time>2014-03-09T11:44:53Z</time>
      </trkpt>
      <trkpt lat="49.75476" lon="2.08052">
        <ele>75.4</ele>
        <time>2014-03-09T11:45:03Z</time>
      </trkpt>
      <trkpt lat="49.75485" lon="2.0807">
        <ele>68.8</ele>
        <time>2014-03-09T11:45:17Z</time>
      </trkpt>
      <trkpt lat="49.75508" lon="2.08105">
        <ele>69.2</ele>
        <time>2014-03-09T11:45:30Z</time>
      </trkpt>
      <trkpt lat="49.75508" lon="2.08105">
        <ele>69.2</ele>
        <time>2014-03-09T11:46:16Z</time>
      </trkpt>
      <trkpt lat="49.7552" lon="2.08129">
        <ele>71</ele>
        <time>2014-03-09T11:46:32Z</time>
      </trkpt>
      <trkpt lat="49.75513" lon="2.08149">
        <ele>69.4</ele>
        <time>2014-03-09T11:46:44Z</time>
      </trkpt>
      <trkpt lat="49.75499" lon="2.08177">
        <ele>69.4</ele>
        <time>2014-03-09T11:46:56Z</time>
      </trkpt>
      <trkpt lat="49.75499" lon="2.08177">
        <ele>69.4</ele>
        <time>2014-03-09T11:47:33Z</time>
      </trkpt>
      <trkpt lat="49.75491" lon="2.08206">
        <ele>64.5</ele>
        <time>2014-03-09T11:47:52Z</time>
      </trkpt>
      <trkpt lat="49.75491" lon="2.08206">
        <ele>64.5</ele>
        <time>2014-03-09T11:50:07Z</time>
      </trkpt>
      <trkpt lat="49.75489" lon="2.08223">
        <ele>57.6</ele>
        <time>2014-03-09T11:50:12Z</time>
      </trkpt>
      <trkpt lat="49.7549" lon="2.08221">
        <ele>58.2</ele>
        <time>2014-03-09T11:50:13Z</time>
      </trkpt>
      <trkpt lat="49.75482" lon="2.08241">
        <ele>63.5</ele>
        <time>2014-03-09T11:50:28Z</time>
      </trkpt>
      <trkpt lat="49.75476" lon="2.08259">
        <ele>62.5</ele>
        <time>2014-03-09T11:50:38Z</time>
      </trkpt>
      <trkpt lat="49.7547" lon="2.0828">
        <ele>60.7</ele>
        <time>2014-03-09T11:50:48Z</time>
      </trkpt>
      <trkpt lat="49.75466" lon="2.0829">
        <ele>61.7</ele>
        <time>2014-03-09T11:50:55Z</time>
      </trkpt>
      <trkpt lat="49.75457" lon="2.08306">
        <ele>62.6</ele>
        <time>2014-03-09T11:51:07Z</time>
      </trkpt>
      <trkpt lat="49.75449" lon="2.08325">
        <ele>60.9</ele>
        <time>2014-03-09T11:51:17Z</time>
      </trkpt>
      <trkpt lat="49.75439" lon="2.0834">
        <ele>63.6</ele>
        <time>2014-03-09T11:51:30Z</time>
      </trkpt>
      <trkpt lat="49.75426" lon="2.0835">
        <ele>61</ele>
        <time>2014-03-09T11:51:41Z</time>
      </trkpt>
      <trkpt lat="49.75414" lon="2.08358">
        <ele>66</ele>
        <time>2014-03-09T11:51:50Z</time>
      </trkpt>
      <trkpt lat="49.754" lon="2.0836">
        <ele>69.6</ele>
        <time>2014-03-09T11:52:15Z</time>
      </trkpt>
      <trkpt lat="49.75386" lon="2.08364">
        <ele>70.5</ele>
        <time>2014-03-09T11:52:24Z</time>
      </trkpt>
      <trkpt lat="49.75379" lon="2.08372">
        <ele>74.8</ele>
        <time>2014-03-09T11:52:33Z</time>
      </trkpt>
      <trkpt lat="49.75382" lon="2.08393">
        <ele>77.7</ele>
        <time>2014-03-09T11:52:48Z</time>
      </trkpt>
      <trkpt lat="49.75382" lon="2.08417">
        <ele>79</ele>
        <time>2014-03-09T11:52:59Z</time>
      </trkpt>
      <trkpt lat="49.75387" lon="2.08436">
        <ele>81</ele>
        <time>2014-03-09T11:53:14Z</time>
      </trkpt>
      <trkpt lat="49.75387" lon="2.08458">
        <ele>83.2</ele>
        <time>2014-03-09T11:53:22Z</time>
      </trkpt>
      <trkpt lat="49.75378" lon="2.0848">
        <ele>85.4</ele>
        <time>2014-03-09T11:53:29Z</time>
      </trkpt>
      <trkpt lat="49.75376" lon="2.08501">
        <ele>86.5</ele>
        <time>2014-03-09T11:53:49Z</time>
      </trkpt>
      <trkpt lat="49.75381" lon="2.08521">
        <ele>83.4</ele>
        <time>2014-03-09T11:54:04Z</time>
      </trkpt>
      <trkpt lat="49.75378" lon="2.08543">
        <ele>81.5</ele>
        <time>2014-03-09T11:54:14Z</time>
      </trkpt>
      <trkpt lat="49.75375" lon="2.08564">
        <ele>80.1</ele>
        <time>2014-03-09T11:54:26Z</time>
      </trkpt>
      <trkpt lat="49.75371" lon="2.08587">
        <ele>78.7</ele>
        <time>2014-03-09T11:54:38Z</time>
      </trkpt>
      <trkpt lat="49.75368" lon="2.08609">
        <ele>75</ele>
        <time>2014-03-09T11:55:01Z</time>
      </trkpt>
      <trkpt lat="49.75358" lon="2.08626">
        <ele>76.5</ele>
        <time>2014-03-09T11:55:11Z</time>
      </trkpt>
      <trkpt lat="49.75352" lon="2.08646">
        <ele>77.9</ele>
        <time>2014-03-09T11:55:21Z</time>
      </trkpt>
      <trkpt lat="49.75347" lon="2.08667">
        <ele>74.4</ele>
        <time>2014-03-09T11:55:31Z</time>
      </trkpt>
      <trkpt lat="49.75341" lon="2.08689">
        <ele>72.1</ele>
        <time>2014-03-09T11:55:46Z</time>
      </trkpt>
      <trkpt lat="49.75335" lon="2.08709">
        <ele>72</ele>
        <time>2014-03-09T11:55:55Z</time>
      </trkpt>
      <trkpt lat="49.7533" lon="2.08729">
        <ele>74.8</ele>
        <time>2014-03-09T11:56:06Z</time>
      </trkpt>
      <trkpt lat="49.75328" lon="2.0875">
        <ele>82</ele>
        <time>2014-03-09T11:56:18Z</time>
      </trkpt>
      <trkpt lat="49.7532" lon="2.08769">
        <ele>85.6</ele>
        <time>2014-03-09T11:56:28Z</time>
      </trkpt>
      <trkpt lat="49.75311" lon="2.08787">
        <ele>92.2</ele>
        <time>2014-03-09T11:56:39Z</time>
      </trkpt>
      <trkpt lat="49.753" lon="2.08799">
        <ele>92.7</ele>
        <time>2014-03-09T11:56:49Z</time>
      </trkpt>
      <trkpt lat="49.75287" lon="2.08807">
        <ele>95.4</ele>
        <time>2014-03-09T11:56:59Z</time>
      </trkpt>
      <trkpt lat="49.75277" lon="2.08824">
        <ele>94.3</ele>
        <time>2014-03-09T11:57:16Z</time>
      </trkpt>
      <trkpt lat="49.75266" lon="2.08838">
        <ele>97</ele>
        <time>2014-03-09T11:57:25Z</time>
      </trkpt>
      <trkpt lat="49.75254" lon="2.08852">
        <ele>90.7</ele>
        <time>2014-03-09T11:57:34Z</time>
      </trkpt>
      <trkpt lat="49.75242" lon="2.08865">
        <ele>85.5</ele>
        <time>2014-03-09T11:57:43Z</time>
      </trkpt>
      <trkpt lat="49.75231" lon="2.08878">
        <ele>85.4</ele>
        <time>2014-03-09T11:57:56Z</time>
      </trkpt>
      <trkpt lat="49.75232" lon="2.08881">
        <ele>81.2</ele>
        <time>2014-03-09T11:58:00Z</time>
      </trkpt>
      <trkpt lat="49.75218" lon="2.08892">
        <ele>72.3</ele>
        <time>2014-03-09T11:58:08Z</time>
      </trkpt>
      <trkpt lat="49.75206" lon="2.08912">
        <ele>75.5</ele>
        <time>2014-03-09T11:58:24Z</time>
      </trkpt>
      <trkpt lat="49.75197" lon="2.08928">
        <ele>77.1</ele>
        <time>2014-03-09T11:58:33Z</time>
      </trkpt>
      <trkpt lat="49.75186" lon="2.08944">
        <ele>80.7</ele>
        <time>2014-03-09T11:58:44Z</time>
      </trkpt>
      <trkpt lat="49.75176" lon="2.08959">
        <ele>86</ele>
        <time>2014-03-09T11:58:54Z</time>
      </trkpt>
      <trkpt lat="49.75166" lon="2.08975">
        <ele>75</ele>
        <time>2014-03-09T11:59:06Z</time>
      </trkpt>
      <trkpt lat="49.75155" lon="2.0899">
        <ele>73.5</ele>
        <time>2014-03-09T11:59:14Z</time>
      </trkpt>
      <trkpt lat="49.75145" lon="2.09006">
        <ele>70.2</ele>
        <time>2014-03-09T11:59:25Z</time>
      </trkpt>
      <trkpt lat="49.75133" lon="2.0902">
        <ele>77.2</ele>
        <time>2014-03-09T11:59:39Z</time>
      </trkpt>
      <trkpt lat="49.75131" lon="2.09022">
        <ele>78.5</ele>
        <time>2014-03-09T11:59:41Z</time>
      </trkpt>
      <trkpt lat="49.75119" lon="2.0904">
        <ele>78.6</ele>
        <time>2014-03-09T11:59:57Z</time>
      </trkpt>
      <trkpt lat="49.7511" lon="2.09056">
        <ele>79.8</ele>
        <time>2014-03-09T12:00:06Z</time>
      </trkpt>
      <trkpt lat="49.75102" lon="2.09075">
        <ele>75.2</ele>
        <time>2014-03-09T12:00:15Z</time>
      </trkpt>
      <trkpt lat="49.75096" lon="2.09094">
        <ele>69.4</ele>
        <time>2014-03-09T12:00:25Z</time>
      </trkpt>
      <trkpt lat="49.75093" lon="2.09115">
        <ele>65.1</ele>
        <time>2014-03-09T12:00:36Z</time>
      </trkpt>
      <trkpt lat="49.75082" lon="2.09131">
        <ele>72.5</ele>
        <time>2014-03-09T12:00:50Z</time>
      </trkpt>
      <trkpt lat="49.75074" lon="2.09149">
        <ele>77.1</ele>
        <time>2014-03-09T12:01:04Z</time>
      </trkpt>
      <trkpt lat="49.75064" lon="2.09167">
        <ele>77.5</ele>
        <time>2014-03-09T12:01:13Z</time>
      </trkpt>
      <trkpt lat="49.75052" lon="2.09181">
        <ele>77.8</ele>
        <time>2014-03-09T12:01:20Z</time>
      </trkpt>
      <trkpt lat="49.75046" lon="2.09186">
        <ele>78.2</ele>
        <time>2014-03-09T12:01:25Z</time>
      </trkpt>
      <trkpt lat="49.75035" lon="2.09198">
        <ele>80</ele>
        <time>2014-03-09T12:01:42Z</time>
      </trkpt>
      <trkpt lat="49.75027" lon="2.09217">
        <ele>80</ele>
        <time>2014-03-09T12:01:53Z</time>
      </trkpt>
      <trkpt lat="49.75016" lon="2.09234">
        <ele>76.8</ele>
        <time>2014-03-09T12:02:01Z</time>
      </trkpt>
      <trkpt lat="49.75006" lon="2.09247">
        <ele>74.8</ele>
        <time>2014-03-09T12:02:11Z</time>
      </trkpt>
      <trkpt lat="49.74995" lon="2.0926">
        <ele>73.1</ele>
        <time>2014-03-09T12:02:23Z</time>
      </trkpt>
      <trkpt lat="49.74983" lon="2.09275">
        <ele>79.2</ele>
        <time>2014-03-09T12:02:36Z</time>
      </trkpt>
      <trkpt lat="49.74973" lon="2.09292">
        <ele>81.6</ele>
        <time>2014-03-09T12:02:49Z</time>
      </trkpt>
      <trkpt lat="49.74959" lon="2.09301">
        <ele>85.5</ele>
        <time>2014-03-09T12:03:01Z</time>
      </trkpt>
      <trkpt lat="49.74951" lon="2.09303">
        <ele>90.9</ele>
        <time>2014-03-09T12:03:12Z</time>
      </trkpt>
      <trkpt lat="49.74936" lon="2.09304">
        <ele>89.2</ele>
        <time>2014-03-09T12:03:24Z</time>
      </trkpt>
      <trkpt lat="49.74923" lon="2.09313">
        <ele>87</ele>
        <time>2014-03-09T12:03:37Z</time>
      </trkpt>
      <trkpt lat="49.74913" lon="2.09328">
        <ele>87</ele>
        <time>2014-03-09T12:03:46Z</time>
      </trkpt>
      <trkpt lat="49.7491" lon="2.09334">
        <ele>87.3</ele>
        <time>2014-03-09T12:03:49Z</time>
      </trkpt>
      <trkpt lat="49.74905" lon="2.09354">
        <ele>89.5</ele>
        <time>2014-03-09T12:04:06Z</time>
      </trkpt>
      <trkpt lat="49.7489" lon="2.09364">
        <ele>85.1</ele>
        <time>2014-03-09T12:04:14Z</time>
      </trkpt>
      <trkpt lat="49.74888" lon="2.09379">
        <ele>84.5</ele>
        <time>2014-03-09T12:04:18Z</time>
      </trkpt>
      <trkpt lat="49.74874" lon="2.09394">
        <ele>87.5</ele>
        <time>2014-03-09T12:04:30Z</time>
      </trkpt>
      <trkpt lat="49.74863" lon="2.09409">
        <ele>89.5</ele>
        <time>2014-03-09T12:04:38Z</time>
      </trkpt>
      <trkpt lat="49.74853" lon="2.09425">
        <ele>91.7</ele>
        <time>2014-03-09T12:04:47Z</time>
      </trkpt>
      <trkpt lat="49.74844" lon="2.09442">
        <ele>88.7</ele>
        <time>2014-03-09T12:04:57Z</time>
      </trkpt>
      <trkpt lat="49.74832" lon="2.09451">
        <ele>75</ele>
        <time>2014-03-09T12:05:10Z</time>
      </trkpt>
      <trkpt lat="49.74822" lon="2.09467">
        <ele>71.6</ele>
        <time>2014-03-09T12:05:21Z</time>
      </trkpt>
      <trkpt lat="49.74813" lon="2.09483">
        <ele>67.6</ele>
        <time>2014-03-09T12:05:34Z</time>
      </trkpt>
      <trkpt lat="49.748" lon="2.09491">
        <ele>65.5</ele>
        <time>2014-03-09T12:05:41Z</time>
      </trkpt>
      <trkpt lat="49.74795" lon="2.0949">
        <ele>64.3</ele>
        <time>2014-03-09T12:05:45Z</time>
      </trkpt>
      <trkpt lat="49.74786" lon="2.09507">
        <ele>65</ele>
        <time>2014-03-09T12:05:54Z</time>
      </trkpt>
      <trkpt lat="49.74776" lon="2.09498">
        <ele>65.7</ele>
        <time>2014-03-09T12:06:12Z</time>
      </trkpt>
      <trkpt lat="49.74764" lon="2.09519">
        <ele>71.5</ele>
        <time>2014-03-09T12:06:31Z</time>
      </trkpt>
      <trkpt lat="49.74762" lon="2.09523">
        <ele>72</ele>
        <time>2014-03-09T12:06:40Z</time>
      </trkpt>
    </trkseg>
  </trk>
</gpx>